AAL955 EGKK-KBOS
Flight info
| Callsign | AAL955 |
|---|---|
| Flight time | 6h 46m |
| Altitude | 34000 |
| Route | SAM N19 ADKIK DCT PEWBI DCT MOPAT DCT TOBOR/M078F350 DCT 5330N02000W 5430N03000W 5430N04000W 5330N05000W DCT PELTU/N0446F360 N598E TAFFY DCT AJJAY OOSHN5 |
| Aircraft | A319/M-SDE3FGHIRWY/LB1 |
Departure
| Time | 2026-04-26 17:29 |
|---|---|
| Airport | London Gatwick Airport (EGKK) |
Arrival
| Time | 2026-04-27 00:16 |
|---|---|
| Airport | Boston Logan International Airport (KBOS) |
| Time | Latitude | Longitude | Altitude | Speed | Heading |
|---|---|---|---|---|---|
| 2026-04-26 16:35 | 51.15818 | -0.17944 | 205 ft | 0 kts | 78° |
| 2026-04-26 17:05 | 51.15814 | -0.17973 | 217 ft | 4 kts | 78° |
| 2026-04-26 17:06 | 51.15808 | -0.18015 | 215 ft | 4 kts | 78° |
| 2026-04-26 17:06 | 51.15802 | -0.18057 | 215 ft | 3 kts | 78° |
| 2026-04-26 17:06 | 51.15802 | -0.18062 | 214 ft | 0 kts | 78° |
| 2026-04-26 17:16 | 51.15802 | -0.18059 | 205 ft | 1 kts | 78° |
| 2026-04-26 17:16 | 51.15801 | -0.18051 | 205 ft | 1 kts | 96° |
| 2026-04-26 17:16 | 51.15791 | -0.18048 | 214 ft | 3 kts | 174° |
| 2026-04-26 17:17 | 51.15760 | -0.18045 | 210 ft | 5 kts | 177° |
| 2026-04-26 17:17 | 51.15724 | -0.18043 | 205 ft | 6 kts | 177° |
| 2026-04-26 17:17 | 51.15688 | -0.18064 | 208 ft | 6 kts | 217° |
| 2026-04-26 17:17 | 51.15676 | -0.18123 | 212 ft | 6 kts | 258° |
| 2026-04-26 17:18 | 51.15667 | -0.18189 | 205 ft | 6 kts | 258° |
| 2026-04-26 17:18 | 51.15658 | -0.18260 | 209 ft | 7 kts | 258° |
| 2026-04-26 17:18 | 51.15654 | -0.18290 | 205 ft | 0 kts | 258° |
| 2026-04-26 17:19 | 51.15654 | -0.18291 | 205 ft | 0 kts | 258° |
| 2026-04-26 17:19 | 51.15652 | -0.18309 | 205 ft | 3 kts | 258° |
| 2026-04-26 17:19 | 51.15641 | -0.18358 | 207 ft | 6 kts | 230° |
| 2026-04-26 17:20 | 51.15594 | -0.18355 | 205 ft | 8 kts | 170° |
| 2026-04-26 17:20 | 51.15574 | -0.18349 | 205 ft | 9 kts | 168° |
| 2026-04-26 17:20 | 51.15456 | -0.18310 | 211 ft | 11 kts | 168° |
| 2026-04-26 17:20 | 51.15381 | -0.18285 | 205 ft | 11 kts | 168° |
| 2026-04-26 17:21 | 51.15304 | -0.18256 | 205 ft | 11 kts | 166° |
| 2026-04-26 17:21 | 51.15225 | -0.18227 | 210 ft | 11 kts | 177° |
| 2026-04-26 17:21 | 51.15182 | -0.18317 | 208 ft | 11 kts | 258° |
| 2026-04-26 17:21 | 51.15169 | -0.18441 | 212 ft | 12 kts | 260° |
| 2026-04-26 17:22 | 51.15158 | -0.18525 | 214 ft | 12 kts | 258° |
| 2026-04-26 17:22 | 51.15142 | -0.18654 | 208 ft | 12 kts | 258° |
| 2026-04-26 17:22 | 51.15124 | -0.18786 | 208 ft | 12 kts | 258° |
| 2026-04-26 17:22 | 51.15106 | -0.18921 | 205 ft | 12 kts | 258° |
| 2026-04-26 17:23 | 51.15088 | -0.19055 | 205 ft | 12 kts | 257° |
| 2026-04-26 17:23 | 51.15069 | -0.19190 | 211 ft | 13 kts | 257° |
| 2026-04-26 17:23 | 51.15050 | -0.19327 | 207 ft | 13 kts | 257° |
| 2026-04-26 17:23 | 51.15024 | -0.19510 | 208 ft | 13 kts | 257° |
| 2026-04-26 17:24 | 51.15010 | -0.19606 | 210 ft | 13 kts | 257° |
| 2026-04-26 17:24 | 51.14990 | -0.19748 | 205 ft | 13 kts | 257° |
| 2026-04-26 17:24 | 51.14969 | -0.19891 | 208 ft | 14 kts | 258° |
| 2026-04-26 17:24 | 51.14950 | -0.20043 | 205 ft | 14 kts | 259° |
| 2026-04-26 17:25 | 51.14931 | -0.20197 | 205 ft | 14 kts | 259° |
| 2026-04-26 17:25 | 51.14910 | -0.20354 | 209 ft | 15 kts | 257° |
| 2026-04-26 17:25 | 51.14888 | -0.20513 | 206 ft | 15 kts | 257° |
| 2026-04-26 17:25 | 51.14866 | -0.20673 | 209 ft | 15 kts | 257° |
| 2026-04-26 17:26 | 51.14843 | -0.20833 | 205 ft | 15 kts | 257° |
| 2026-04-26 17:26 | 51.14820 | -0.20995 | 207 ft | 15 kts | 257° |
| 2026-04-26 17:26 | 51.14795 | -0.21161 | 214 ft | 16 kts | 253° |
| 2026-04-26 17:26 | 51.14759 | -0.21325 | 205 ft | 16 kts | 259° |
| 2026-04-26 17:27 | 51.14691 | -0.21398 | 205 ft | 14 kts | 167° |
| 2026-04-26 17:27 | 51.14617 | -0.21332 | 208 ft | 9 kts | 165° |
| 2026-04-26 17:27 | 51.14609 | -0.21328 | 205 ft | 0 kts | 165° |
| 2026-04-26 17:27 | 51.14608 | -0.21328 | 205 ft | 0 kts | 165° |
| 2026-04-26 17:28 | 51.14590 | -0.21320 | 210 ft | 9 kts | 165° |
| 2026-04-26 17:28 | 51.14533 | -0.21261 | 205 ft | 10 kts | 129° |
| 2026-04-26 17:28 | 51.14520 | -0.21155 | 206 ft | 9 kts | 84° |
| 2026-04-26 17:28 | 51.14538 | -0.21017 | 210 ft | 27 kts | 77° |
| 2026-04-26 17:29 | 51.14631 | -0.20371 | 213 ft | 90 kts | 77° |
| 2026-04-26 17:29 | 51.14737 | -0.19601 | 209 ft | 124 kts | 78° |
| 2026-04-26 17:29 | 51.15038 | -0.17464 | 460 ft | 158 kts | 77° |
| 2026-04-26 17:29 | 51.15276 | -0.15742 | 1062 ft | 159 kts | 78° |
| 2026-04-26 17:30 | 51.15512 | -0.14017 | 1642 ft | 160 kts | 78° |
| 2026-04-26 17:30 | 51.15749 | -0.12272 | 2068 ft | 170 kts | 78° |
| 2026-04-26 17:30 | 51.16016 | -0.10308 | 2295 ft | 192 kts | 77° |
| 2026-04-26 17:30 | 51.16317 | -0.08101 | 2530 ft | 214 kts | 77° |
| 2026-04-26 17:31 | 51.16831 | -0.05815 | 2942 ft | 227 kts | 53° |
| 2026-04-26 17:31 | 51.18105 | -0.04347 | 3066 ft | 231 kts | 14° |
| 2026-04-26 17:31 | 51.19681 | -0.04335 | 3021 ft | 228 kts | 349° |
| 2026-04-26 17:31 | 51.21212 | -0.05005 | 3000 ft | 229 kts | 337° |
| 2026-04-26 17:32 | 51.22387 | -0.06631 | 3004 ft | 229 kts | 298° |
| 2026-04-26 17:32 | 51.22799 | -0.09099 | 3116 ft | 244 kts | 266° |
| 2026-04-26 17:32 | 51.22523 | -0.11880 | 3607 ft | 260 kts | 259° |
| 2026-04-26 17:32 | 51.22188 | -0.14755 | 4369 ft | 266 kts | 259° |
| 2026-04-26 17:33 | 51.21853 | -0.17669 | 5191 ft | 269 kts | 260° |
| 2026-04-26 17:33 | 51.21517 | -0.20617 | 5998 ft | 272 kts | 260° |
| 2026-04-26 17:33 | 51.21177 | -0.23603 | 6774 ft | 275 kts | 260° |
| 2026-04-26 17:34 | 51.20482 | -0.29653 | 8306 ft | 279 kts | 260° |
| 2026-04-26 17:34 | 51.20139 | -0.32623 | 9089 ft | 281 kts | 260° |
| 2026-04-26 17:34 | 51.19779 | -0.35697 | 9840 ft | 284 kts | 259° |
| 2026-04-26 17:34 | 51.19387 | -0.38799 | 10566 ft | 286 kts | 259° |
| 2026-04-26 17:35 | 51.18975 | -0.41925 | 11265 ft | 289 kts | 258° |
| 2026-04-26 17:35 | 51.18554 | -0.45069 | 11967 ft | 291 kts | 258° |
| 2026-04-26 17:35 | 51.18130 | -0.48227 | 12679 ft | 292 kts | 258° |
| 2026-04-26 17:35 | 51.17705 | -0.51409 | 13412 ft | 294 kts | 258° |
| 2026-04-26 17:36 | 51.17130 | -0.54542 | 13991 ft | 302 kts | 249° |
| 2026-04-26 17:36 | 51.16300 | -0.57743 | 14112 ft | 323 kts | 248° |
| 2026-04-26 17:36 | 51.15397 | -0.61137 | 14237 ft | 342 kts | 248° |
| 2026-04-26 17:36 | 51.14438 | -0.64711 | 14360 ft | 360 kts | 248° |
| 2026-04-26 17:37 | 51.13428 | -0.68461 | 14479 ft | 377 kts | 248° |
| 2026-04-26 17:37 | 51.12377 | -0.72362 | 14710 ft | 389 kts | 248° |
| 2026-04-26 17:37 | 51.11304 | -0.76348 | 15166 ft | 394 kts | 248° |
| 2026-04-26 17:38 | 51.09130 | -0.84422 | 16189 ft | 400 kts | 248° |
| 2026-04-26 17:38 | 51.08044 | -0.88453 | 16669 ft | 403 kts | 248° |
| 2026-04-26 17:38 | 51.06935 | -0.92565 | 17152 ft | 406 kts | 248° |
| 2026-04-26 17:38 | 51.05820 | -0.96711 | 17627 ft | 409 kts | 248° |
| 2026-04-26 17:39 | 51.04701 | -1.00869 | 18091 ft | 412 kts | 248° |
| 2026-04-26 17:39 | 51.03563 | -1.05082 | 18555 ft | 415 kts | 248° |
| 2026-04-26 17:39 | 51.02418 | -1.09297 | 18950 ft | 417 kts | 248° |
| 2026-04-26 17:39 | 51.01262 | -1.13541 | 19348 ft | 419 kts | 248° |
| 2026-04-26 17:40 | 51.00100 | -1.17803 | 19746 ft | 421 kts | 248° |
| 2026-04-26 17:40 | 50.99328 | -1.20635 | 20011 ft | 423 kts | 248° |
| 2026-04-26 17:40 | 50.97756 | -1.26372 | 20536 ft | 425 kts | 248° |
| 2026-04-26 17:40 | 50.96571 | -1.30679 | 20913 ft | 427 kts | 247° |
| 2026-04-26 17:41 | 50.95515 | -1.35091 | 21290 ft | 428 kts | 255° |
| 2026-04-26 17:41 | 50.94869 | -1.39697 | 21651 ft | 429 kts | 259° |
| 2026-04-26 17:41 | 50.94289 | -1.44360 | 22018 ft | 431 kts | 259° |
| 2026-04-26 17:41 | 50.93697 | -1.49028 | 22372 ft | 433 kts | 259° |
| 2026-04-26 17:42 | 50.93094 | -1.53717 | 22720 ft | 435 kts | 259° |
| 2026-04-26 17:42 | 50.92484 | -1.58419 | 23062 ft | 437 kts | 259° |
| 2026-04-26 17:42 | 50.91871 | -1.63147 | 23390 ft | 439 kts | 259° |
| 2026-04-26 17:42 | 50.91256 | -1.67887 | 23708 ft | 440 kts | 259° |
| 2026-04-26 17:43 | 50.90647 | -1.72584 | 23989 ft | 442 kts | 259° |
| 2026-04-26 17:43 | 50.90015 | -1.77433 | 24259 ft | 444 kts | 258° |
| 2026-04-26 17:43 | 50.89396 | -1.82167 | 24523 ft | 446 kts | 258° |
| 2026-04-26 17:43 | 50.88758 | -1.87042 | 24790 ft | 447 kts | 258° |
| 2026-04-26 17:44 | 50.88135 | -1.91797 | 25048 ft | 448 kts | 258° |
| 2026-04-26 17:44 | 50.87494 | -1.96643 | 25303 ft | 450 kts | 258° |
| 2026-04-26 17:44 | 50.86850 | -2.01503 | 25543 ft | 451 kts | 258° |
| 2026-04-26 17:44 | 50.86207 | -2.06365 | 25838 ft | 451 kts | 258° |
| 2026-04-26 17:45 | 50.85563 | -2.11213 | 26214 ft | 450 kts | 258° |
| 2026-04-26 17:45 | 50.84918 | -2.16051 | 26581 ft | 448 kts | 258° |
| 2026-04-26 17:45 | 50.84270 | -2.20871 | 26949 ft | 447 kts | 258° |
| 2026-04-26 17:45 | 50.83621 | -2.25682 | 27321 ft | 446 kts | 258° |
| 2026-04-26 17:46 | 50.82975 | -2.30461 | 27697 ft | 444 kts | 258° |
| 2026-04-26 17:46 | 50.82339 | -2.35170 | 28077 ft | 443 kts | 258° |
| 2026-04-26 17:46 | 50.81694 | -2.39921 | 28463 ft | 441 kts | 258° |
| 2026-04-26 17:46 | 50.81040 | -2.44719 | 28856 ft | 440 kts | 258° |
| 2026-04-26 17:47 | 50.80445 | -2.49390 | 29235 ft | 439 kts | 262° |
| 2026-04-26 17:47 | 50.80256 | -2.52623 | 29501 ft | 438 kts | 268° |
| 2026-04-26 17:47 | 50.80538 | -2.58966 | 30022 ft | 438 kts | 279° |
| 2026-04-26 17:47 | 50.81274 | -2.63638 | 30398 ft | 437 kts | 284° |
| 2026-04-26 17:48 | 50.82093 | -2.68261 | 30715 ft | 436 kts | 284° |
| 2026-04-26 17:48 | 50.82903 | -2.72881 | 31043 ft | 435 kts | 283° |
| 2026-04-26 17:48 | 50.83702 | -2.77484 | 31363 ft | 434 kts | 283° |
| 2026-04-26 17:48 | 50.84500 | -2.82091 | 31679 ft | 433 kts | 283° |
| 2026-04-26 17:49 | 50.85295 | -2.86685 | 31995 ft | 432 kts | 283° |
| 2026-04-26 17:49 | 50.86087 | -2.91272 | 32326 ft | 431 kts | 283° |
| 2026-04-26 17:49 | 50.86874 | -2.95844 | 32653 ft | 430 kts | 283° |
| 2026-04-26 17:49 | 50.87658 | -3.00409 | 32967 ft | 429 kts | 282° |
| 2026-04-26 17:50 | 50.88438 | -3.04958 | 33277 ft | 428 kts | 282° |
| 2026-04-26 17:50 | 50.89218 | -3.09506 | 33590 ft | 427 kts | 282° |
| 2026-04-26 17:50 | 50.89993 | -3.14039 | 33898 ft | 426 kts | 282° |
| 2026-04-26 17:50 | 50.90766 | -3.18573 | 34197 ft | 426 kts | 282° |
| 2026-04-26 17:51 | 50.92307 | -3.27656 | 34276 ft | 428 kts | 282° |
| 2026-04-26 17:51 | 50.93847 | -3.36792 | 34274 ft | 429 kts | 282° |
| 2026-04-26 17:52 | 50.95382 | -3.45937 | 34271 ft | 429 kts | 281° |
| 2026-04-26 17:52 | 50.96903 | -3.55091 | 34269 ft | 430 kts | 281° |
| 2026-04-26 17:53 | 50.98410 | -3.64202 | 34272 ft | 430 kts | 281° |
| 2026-04-26 17:54 | 51.00693 | -3.77970 | 34266 ft | 430 kts | 281° |
| 2026-04-26 17:54 | 51.02196 | -3.87166 | 34263 ft | 430 kts | 281° |
| 2026-04-26 17:55 | 51.03690 | -3.96365 | 34264 ft | 431 kts | 280° |
| 2026-04-26 17:55 | 51.05180 | -4.05590 | 34264 ft | 431 kts | 280° |
| 2026-04-26 17:56 | 51.06674 | -4.14822 | 34260 ft | 431 kts | 280° |
| 2026-04-26 17:57 | 51.09629 | -4.33307 | 34260 ft | 432 kts | 280° |
| 2026-04-26 17:57 | 51.11100 | -4.42579 | 34257 ft | 432 kts | 279° |
| 2026-04-26 17:58 | 51.14026 | -4.61169 | 34260 ft | 434 kts | 279° |
| 2026-04-26 17:59 | 51.16204 | -4.75172 | 34262 ft | 435 kts | 279° |
| 2026-04-26 17:59 | 51.17645 | -4.84506 | 34260 ft | 436 kts | 278° |
| 2026-04-26 18:00 | 51.19088 | -4.93914 | 34259 ft | 437 kts | 278° |
| 2026-04-26 18:00 | 51.20525 | -5.03342 | 34263 ft | 438 kts | 278° |
| 2026-04-26 18:01 | 51.21955 | -5.12793 | 34269 ft | 438 kts | 278° |
| 2026-04-26 18:01 | 51.23382 | -5.22267 | 34272 ft | 439 kts | 278° |
| 2026-04-26 18:02 | 51.24321 | -5.28541 | 34273 ft | 439 kts | 278° |
| 2026-04-26 18:02 | 51.26211 | -5.41165 | 34276 ft | 440 kts | 279° |
| 2026-04-26 18:03 | 51.27625 | -5.50674 | 34276 ft | 440 kts | 279° |
| 2026-04-26 18:03 | 51.29023 | -5.60203 | 34281 ft | 440 kts | 278° |
| 2026-04-26 18:04 | 51.30409 | -5.69719 | 34283 ft | 440 kts | 279° |
| 2026-04-26 18:05 | 51.32497 | -5.84019 | 34280 ft | 441 kts | 279° |
| 2026-04-26 18:05 | 51.33871 | -5.93577 | 34285 ft | 441 kts | 279° |
| 2026-04-26 18:06 | 51.35240 | -6.03142 | 34284 ft | 441 kts | 279° |
| 2026-04-26 18:06 | 51.36599 | -6.12679 | 34281 ft | 442 kts | 279° |
| 2026-04-26 18:07 | 51.37952 | -6.22274 | 34283 ft | 442 kts | 279° |
| 2026-04-26 18:07 | 51.39301 | -6.31893 | 34284 ft | 443 kts | 279° |
| 2026-04-26 18:08 | 51.40636 | -6.41465 | 34285 ft | 443 kts | 279° |
| 2026-04-26 18:08 | 51.41979 | -6.51128 | 34283 ft | 444 kts | 279° |
| 2026-04-26 18:09 | 51.43309 | -6.60789 | 34278 ft | 444 kts | 279° |
| 2026-04-26 18:09 | 51.44632 | -6.70481 | 34281 ft | 445 kts | 279° |
| 2026-04-26 18:10 | 51.45728 | -6.78537 | 34283 ft | 445 kts | 279° |
| 2026-04-26 18:10 | 51.47258 | -6.89903 | 34282 ft | 446 kts | 279° |
| 2026-04-26 18:11 | 51.48559 | -6.99585 | 34282 ft | 446 kts | 279° |
| 2026-04-26 18:11 | 51.49863 | -7.09331 | 34282 ft | 447 kts | 279° |
| 2026-04-26 18:12 | 51.51339 | -7.19045 | 34284 ft | 448 kts | 282° |
| 2026-04-26 18:12 | 51.52697 | -7.27082 | 34285 ft | 449 kts | 282° |
| 2026-04-26 18:13 | 51.54326 | -7.36767 | 34285 ft | 449 kts | 282° |
| 2026-04-26 18:13 | 51.55888 | -7.46483 | 34289 ft | 449 kts | 282° |
| 2026-04-26 18:14 | 51.57429 | -7.56210 | 34289 ft | 449 kts | 282° |
| 2026-04-26 18:14 | 51.58969 | -7.65946 | 34290 ft | 450 kts | 282° |
| 2026-04-26 18:15 | 51.60512 | -7.75693 | 34289 ft | 450 kts | 282° |
| 2026-04-26 18:15 | 51.62048 | -7.85455 | 34292 ft | 450 kts | 282° |
| 2026-04-26 18:16 | 51.63567 | -7.95219 | 34299 ft | 450 kts | 282° |
| 2026-04-26 18:16 | 51.65823 | -8.09869 | 34295 ft | 450 kts | 282° |
| 2026-04-26 18:17 | 51.67323 | -8.19645 | 34305 ft | 450 kts | 282° |
| 2026-04-26 18:17 | 51.68819 | -8.29435 | 34307 ft | 450 kts | 282° |
| 2026-04-26 18:18 | 51.70309 | -8.39228 | 34302 ft | 449 kts | 282° |
| 2026-04-26 18:18 | 51.71777 | -8.48947 | 34310 ft | 449 kts | 282° |
| 2026-04-26 18:19 | 51.73244 | -8.58743 | 34310 ft | 449 kts | 282° |
| 2026-04-26 18:19 | 51.74695 | -8.68543 | 34313 ft | 449 kts | 282° |
| 2026-04-26 18:20 | 51.76141 | -8.78344 | 34305 ft | 449 kts | 283° |
| 2026-04-26 18:20 | 51.77340 | -8.86492 | 34310 ft | 448 kts | 283° |
| 2026-04-26 18:21 | 51.79008 | -8.97937 | 34302 ft | 448 kts | 283° |
| 2026-04-26 18:21 | 51.80435 | -9.07739 | 34308 ft | 447 kts | 283° |
| 2026-04-26 18:22 | 51.81847 | -9.17533 | 34311 ft | 447 kts | 283° |
| 2026-04-26 18:22 | 51.83251 | -9.27327 | 34310 ft | 447 kts | 283° |
| 2026-04-26 18:23 | 51.84647 | -9.37103 | 34309 ft | 446 kts | 283° |
| 2026-04-26 18:23 | 51.86033 | -9.46887 | 34308 ft | 446 kts | 283° |
| 2026-04-26 18:24 | 51.87404 | -9.56680 | 34306 ft | 446 kts | 283° |
| 2026-04-26 18:24 | 51.88767 | -9.66472 | 34308 ft | 446 kts | 283° |
| 2026-04-26 18:25 | 51.90119 | -9.76207 | 34307 ft | 446 kts | 283° |
| 2026-04-26 18:25 | 51.91472 | -9.86001 | 34313 ft | 446 kts | 283° |
| 2026-04-26 18:26 | 51.92808 | -9.95795 | 34318 ft | 446 kts | 283° |
| 2026-04-26 18:26 | 51.94138 | -10.05601 | 34319 ft | 445 kts | 283° |
| 2026-04-26 18:27 | 51.95465 | -10.15403 | 34323 ft | 445 kts | 283° |
| 2026-04-26 18:27 | 51.96787 | -10.25210 | 34327 ft | 445 kts | 283° |
| 2026-04-26 18:28 | 51.98096 | -10.35026 | 34326 ft | 445 kts | 283° |
| 2026-04-26 18:28 | 51.99388 | -10.44828 | 34327 ft | 444 kts | 283° |
| 2026-04-26 18:29 | 52.00674 | -10.54633 | 34333 ft | 444 kts | 283° |
| 2026-04-26 18:29 | 52.01957 | -10.64425 | 34335 ft | 443 kts | 283° |
| 2026-04-26 18:30 | 52.03229 | -10.74220 | 34343 ft | 443 kts | 283° |
| 2026-04-26 18:30 | 52.04486 | -10.84012 | 34342 ft | 442 kts | 283° |
| 2026-04-26 18:31 | 52.05732 | -10.93787 | 34343 ft | 442 kts | 283° |
| 2026-04-26 18:31 | 52.06979 | -11.03561 | 34345 ft | 441 kts | 283° |
| 2026-04-26 18:32 | 52.08218 | -11.13321 | 34347 ft | 441 kts | 283° |
| 2026-04-26 18:32 | 52.09443 | -11.23076 | 34344 ft | 440 kts | 283° |
| 2026-04-26 18:33 | 52.10643 | -11.32757 | 34348 ft | 439 kts | 283° |
| 2026-04-26 18:33 | 52.11839 | -11.42558 | 34348 ft | 439 kts | 283° |
| 2026-04-26 18:34 | 52.13022 | -11.52230 | 34351 ft | 438 kts | 283° |
| 2026-04-26 18:34 | 52.14207 | -11.61939 | 34344 ft | 437 kts | 283° |
| 2026-04-26 18:35 | 52.15380 | -11.71655 | 34347 ft | 437 kts | 283° |
| 2026-04-26 18:35 | 52.16546 | -11.81377 | 34343 ft | 437 kts | 283° |
| 2026-04-26 18:36 | 52.17702 | -11.91090 | 34339 ft | 437 kts | 283° |
| 2026-04-26 18:36 | 52.18843 | -12.00807 | 34343 ft | 437 kts | 283° |
| 2026-04-26 18:37 | 52.19980 | -12.10527 | 34339 ft | 436 kts | 283° |
| 2026-04-26 18:37 | 52.21112 | -12.20246 | 34337 ft | 436 kts | 283° |
| 2026-04-26 18:38 | 52.22235 | -12.29969 | 34339 ft | 436 kts | 283° |
| 2026-04-26 18:38 | 52.23352 | -12.39700 | 34339 ft | 436 kts | 283° |
| 2026-04-26 18:39 | 52.24449 | -12.49367 | 34342 ft | 436 kts | 283° |
| 2026-04-26 18:39 | 52.25546 | -12.59097 | 34339 ft | 436 kts | 283° |
| 2026-04-26 18:40 | 52.26635 | -12.68823 | 34344 ft | 436 kts | 283° |
| 2026-04-26 18:40 | 52.27713 | -12.78547 | 34344 ft | 435 kts | 283° |
| 2026-04-26 18:41 | 52.28780 | -12.88281 | 34342 ft | 435 kts | 283° |
| 2026-04-26 18:41 | 52.29846 | -12.98009 | 34341 ft | 435 kts | 283° |
| 2026-04-26 18:42 | 52.30902 | -13.07743 | 34340 ft | 435 kts | 283° |
| 2026-04-26 18:42 | 52.31946 | -13.17484 | 34339 ft | 435 kts | 283° |
| 2026-04-26 18:43 | 52.32993 | -13.27225 | 34339 ft | 435 kts | 283° |
| 2026-04-26 18:43 | 52.34031 | -13.36967 | 34338 ft | 435 kts | 283° |
| 2026-04-26 18:44 | 52.35045 | -13.46726 | 34339 ft | 435 kts | 283° |
| 2026-04-26 18:44 | 52.36052 | -13.56488 | 34667 ft | 435 kts | 283° |
| 2026-04-26 18:45 | 52.36550 | -13.61303 | 34925 ft | 434 kts | 283° |
| 2026-04-26 18:45 | 52.37059 | -13.66189 | 35181 ft | 434 kts | 283° |
| 2026-04-26 18:45 | 52.37560 | -13.71051 | 35316 ft | 434 kts | 283° |
| 2026-04-26 18:45 | 52.38057 | -13.75925 | 35343 ft | 434 kts | 283° |
| 2026-04-26 18:46 | 52.39039 | -13.85660 | 35339 ft | 433 kts | 283° |
| 2026-04-26 18:46 | 52.40014 | -13.95389 | 35340 ft | 433 kts | 283° |
| 2026-04-26 18:47 | 52.40988 | -14.05117 | 35340 ft | 433 kts | 283° |
| 2026-04-26 18:47 | 52.41953 | -14.14846 | 35337 ft | 433 kts | 283° |
| 2026-04-26 18:48 | 52.42902 | -14.24577 | 35339 ft | 433 kts | 283° |
| 2026-04-26 18:48 | 52.43841 | -14.34328 | 35339 ft | 433 kts | 283° |
| 2026-04-26 18:49 | 52.44782 | -14.44067 | 35342 ft | 433 kts | 283° |
| 2026-04-26 18:49 | 52.45718 | -14.53806 | 35342 ft | 432 kts | 283° |
| 2026-04-26 18:50 | 52.46642 | -14.63551 | 35342 ft | 432 kts | 283° |
| 2026-04-26 18:50 | 52.47554 | -14.73237 | 35343 ft | 432 kts | 283° |
| 2026-04-26 18:51 | 52.48457 | -14.82983 | 35345 ft | 432 kts | 282° |
| 2026-04-26 18:51 | 52.49346 | -14.92734 | 35343 ft | 432 kts | 282° |
| 2026-04-26 18:52 | 52.50549 | -15.02396 | 35343 ft | 427 kts | 293° |
| 2026-04-26 18:52 | 52.52612 | -15.11518 | 35348 ft | 426 kts | 294° |
| 2026-04-26 18:53 | 52.54658 | -15.20638 | 35341 ft | 426 kts | 293° |
| 2026-04-26 18:53 | 52.56685 | -15.29714 | 35344 ft | 426 kts | 293° |
| 2026-04-26 18:54 | 52.58720 | -15.38853 | 35341 ft | 426 kts | 293° |
| 2026-04-26 18:54 | 52.60749 | -15.48015 | 35336 ft | 426 kts | 293° |
| 2026-04-26 18:55 | 52.62761 | -15.57181 | 35341 ft | 426 kts | 292° |
| 2026-04-26 18:55 | 52.64769 | -15.66366 | 35340 ft | 426 kts | 292° |
| 2026-04-26 18:56 | 52.66769 | -15.75545 | 35337 ft | 426 kts | 292° |
| 2026-04-26 18:56 | 52.68771 | -15.84737 | 35335 ft | 426 kts | 292° |
| 2026-04-26 18:57 | 52.70111 | -15.90886 | 35337 ft | 426 kts | 292° |
| 2026-04-26 18:57 | 52.72762 | -16.03145 | 35331 ft | 426 kts | 292° |
| 2026-04-26 18:58 | 52.74735 | -16.12375 | 35333 ft | 427 kts | 292° |
| 2026-04-26 18:58 | 52.76705 | -16.21623 | 35330 ft | 427 kts | 292° |
| 2026-04-26 18:59 | 52.78343 | -16.29305 | 35327 ft | 427 kts | 291° |
| 2026-04-26 18:59 | 52.80645 | -16.40132 | 35337 ft | 427 kts | 291° |
| 2026-04-26 19:00 | 52.82266 | -16.47832 | 35331 ft | 427 kts | 291° |
| 2026-04-26 19:00 | 52.84214 | -16.57118 | 35332 ft | 427 kts | 291° |
| 2026-04-26 19:01 | 52.86153 | -16.66425 | 35328 ft | 427 kts | 291° |
| 2026-04-26 19:01 | 52.88085 | -16.75734 | 35329 ft | 427 kts | 291° |
| 2026-04-26 19:02 | 52.90014 | -16.85041 | 35333 ft | 427 kts | 291° |
| 2026-04-26 19:02 | 52.91612 | -16.92787 | 35332 ft | 427 kts | 291° |
| 2026-04-26 19:03 | 52.93848 | -17.03688 | 35331 ft | 427 kts | 290° |
| 2026-04-26 19:03 | 52.95752 | -17.13018 | 35326 ft | 427 kts | 290° |
| 2026-04-26 19:04 | 52.97650 | -17.22360 | 35331 ft | 427 kts | 290° |
| 2026-04-26 19:04 | 52.99543 | -17.31697 | 35338 ft | 427 kts | 290° |
| 2026-04-26 19:05 | 53.02351 | -17.45720 | 35329 ft | 427 kts | 290° |
| 2026-04-26 19:06 | 53.04214 | -17.55078 | 35329 ft | 427 kts | 290° |
| 2026-04-26 19:06 | 53.06082 | -17.64453 | 35327 ft | 426 kts | 290° |
| 2026-04-26 19:07 | 53.07929 | -17.73749 | 35325 ft | 426 kts | 290° |
| 2026-04-26 19:07 | 53.09778 | -17.83127 | 35327 ft | 426 kts | 290° |
| 2026-04-26 19:08 | 53.11618 | -17.92501 | 35327 ft | 426 kts | 290° |
| 2026-04-26 19:08 | 53.13446 | -18.01889 | 35328 ft | 426 kts | 290° |
| 2026-04-26 19:09 | 53.15263 | -18.11268 | 35324 ft | 426 kts | 290° |
| 2026-04-26 19:09 | 53.17076 | -18.20668 | 35324 ft | 425 kts | 290° |
| 2026-04-26 19:10 | 53.18878 | -18.30053 | 35324 ft | 425 kts | 290° |
| 2026-04-26 19:10 | 53.20674 | -18.39447 | 35323 ft | 425 kts | 290° |
| 2026-04-26 19:11 | 53.22463 | -18.48840 | 35328 ft | 425 kts | 290° |
| 2026-04-26 19:11 | 53.24240 | -18.58238 | 35321 ft | 424 kts | 290° |
| 2026-04-26 19:12 | 53.25997 | -18.67578 | 35327 ft | 424 kts | 290° |
| 2026-04-26 19:12 | 53.27775 | -18.77025 | 35326 ft | 423 kts | 289° |
| 2026-04-26 19:13 | 53.29515 | -18.86358 | 35321 ft | 423 kts | 289° |
| 2026-04-26 19:13 | 53.31252 | -18.95746 | 35317 ft | 422 kts | 289° |
| 2026-04-26 19:14 | 53.32978 | -19.05130 | 35319 ft | 422 kts | 289° |
| 2026-04-26 19:14 | 53.34701 | -19.14511 | 35319 ft | 421 kts | 289° |
| 2026-04-26 19:15 | 53.36420 | -19.23882 | 35313 ft | 421 kts | 289° |
| 2026-04-26 19:15 | 53.38133 | -19.33264 | 35307 ft | 421 kts | 289° |
| 2026-04-26 19:16 | 53.39827 | -19.42652 | 35308 ft | 421 kts | 288° |
| 2026-04-26 19:16 | 53.41515 | -19.52056 | 35305 ft | 421 kts | 288° |
| 2026-04-26 19:17 | 53.43195 | -19.61462 | 35298 ft | 421 kts | 288° |
| 2026-04-26 19:17 | 53.44874 | -19.70876 | 35297 ft | 421 kts | 288° |
| 2026-04-26 19:18 | 53.46554 | -19.80302 | 35295 ft | 421 kts | 288° |
| 2026-04-26 19:18 | 53.48203 | -19.89669 | 35293 ft | 422 kts | 288° |
| 2026-04-26 19:19 | 53.49841 | -19.99127 | 35297 ft | 422 kts | 287° |
| 2026-04-26 19:19 | 53.51331 | -20.08646 | 35300 ft | 422 kts | 285° |
| 2026-04-26 19:20 | 53.52676 | -20.18250 | 35297 ft | 422 kts | 284° |
| 2026-04-26 19:20 | 53.54003 | -20.27851 | 35297 ft | 421 kts | 284° |
| 2026-04-26 19:21 | 53.55350 | -20.37438 | 35293 ft | 421 kts | 284° |
| 2026-04-26 19:21 | 53.56706 | -20.47017 | 35291 ft | 421 kts | 284° |
| 2026-04-26 19:22 | 53.58052 | -20.56604 | 35289 ft | 421 kts | 284° |
| 2026-04-26 19:22 | 53.59387 | -20.66182 | 35287 ft | 421 kts | 284° |
| 2026-04-26 19:23 | 53.60701 | -20.75715 | 35282 ft | 420 kts | 284° |
| 2026-04-26 19:23 | 53.62019 | -20.85312 | 35280 ft | 420 kts | 284° |
| 2026-04-26 19:24 | 53.63328 | -20.94907 | 35278 ft | 421 kts | 284° |
| 2026-04-26 19:24 | 53.65281 | -21.09331 | 35272 ft | 421 kts | 283° |
| 2026-04-26 19:25 | 53.66356 | -21.17327 | 35271 ft | 421 kts | 283° |
| 2026-04-26 19:25 | 53.67859 | -21.28585 | 35267 ft | 421 kts | 283° |
| 2026-04-26 19:26 | 53.69139 | -21.38226 | 35268 ft | 421 kts | 283° |
| 2026-04-26 19:26 | 53.70398 | -21.47866 | 35266 ft | 421 kts | 283° |
| 2026-04-26 19:27 | 53.71663 | -21.57535 | 35259 ft | 421 kts | 283° |
| 2026-04-26 19:27 | 53.72917 | -21.67194 | 35257 ft | 422 kts | 283° |
| 2026-04-26 19:28 | 53.74170 | -21.76872 | 35257 ft | 422 kts | 283° |
| 2026-04-26 19:28 | 53.75407 | -21.86552 | 35255 ft | 422 kts | 282° |
| 2026-04-26 19:29 | 53.76630 | -21.96246 | 35253 ft | 422 kts | 282° |
| 2026-04-26 19:29 | 53.77856 | -22.05941 | 35252 ft | 422 kts | 282° |
| 2026-04-26 19:30 | 53.79080 | -22.15631 | 35246 ft | 422 kts | 282° |
| 2026-04-26 19:30 | 53.80093 | -22.23701 | 35246 ft | 422 kts | 282° |
| 2026-04-26 19:31 | 53.81491 | -22.35050 | 35244 ft | 422 kts | 282° |
| 2026-04-26 19:31 | 53.82689 | -22.44770 | 35240 ft | 422 kts | 282° |
| 2026-04-26 19:32 | 53.83879 | -22.54489 | 35241 ft | 421 kts | 281° |
| 2026-04-26 19:32 | 53.85051 | -22.64213 | 35237 ft | 421 kts | 281° |
| 2026-04-26 19:33 | 53.86206 | -22.73871 | 35234 ft | 421 kts | 281° |
| 2026-04-26 19:33 | 53.87361 | -22.83590 | 35232 ft | 421 kts | 281° |
| 2026-04-26 19:34 | 53.88515 | -22.93323 | 35230 ft | 421 kts | 281° |
| 2026-04-26 19:34 | 53.89659 | -23.03049 | 35226 ft | 420 kts | 281° |
| 2026-04-26 19:35 | 53.90794 | -23.12763 | 35224 ft | 420 kts | 280° |
| 2026-04-26 19:35 | 53.91920 | -23.22489 | 35222 ft | 420 kts | 280° |
| 2026-04-26 19:36 | 53.92666 | -23.28993 | 35219 ft | 420 kts | 280° |
| 2026-04-26 19:36 | 53.94144 | -23.41930 | 35216 ft | 419 kts | 280° |
| 2026-04-26 19:37 | 53.95240 | -23.51647 | 35212 ft | 419 kts | 279° |
| 2026-04-26 19:37 | 53.96327 | -23.61356 | 35213 ft | 419 kts | 279° |
| 2026-04-26 19:38 | 53.97415 | -23.71061 | 35202 ft | 418 kts | 279° |
| 2026-04-26 19:38 | 53.98494 | -23.80777 | 35194 ft | 418 kts | 279° |
| 2026-04-26 19:39 | 53.99562 | -23.90501 | 35192 ft | 418 kts | 279° |
| 2026-04-26 19:39 | 54.00619 | -24.00223 | 35197 ft | 418 kts | 279° |
| 2026-04-26 19:40 | 54.01668 | -24.09957 | 35186 ft | 418 kts | 279° |
| 2026-04-26 19:40 | 54.02702 | -24.19691 | 35178 ft | 418 kts | 279° |
| 2026-04-26 19:41 | 54.03736 | -24.29436 | 35177 ft | 418 kts | 278° |
| 2026-04-26 19:41 | 54.04421 | -24.35873 | 35168 ft | 418 kts | 278° |
| 2026-04-26 19:42 | 54.05780 | -24.48843 | 35170 ft | 418 kts | 278° |
| 2026-04-26 19:42 | 54.06788 | -24.58586 | 35164 ft | 418 kts | 278° |
| 2026-04-26 19:43 | 54.07787 | -24.68340 | 35163 ft | 418 kts | 278° |
| 2026-04-26 19:43 | 54.08778 | -24.78106 | 35159 ft | 418 kts | 278° |
| 2026-04-26 19:44 | 54.09763 | -24.87860 | 35150 ft | 418 kts | 277° |
| 2026-04-26 19:44 | 54.10755 | -24.97620 | 35146 ft | 418 kts | 277° |
| 2026-04-26 19:45 | 54.11731 | -25.07384 | 35144 ft | 418 kts | 277° |
| 2026-04-26 19:45 | 54.12695 | -25.17156 | 35138 ft | 418 kts | 277° |
| 2026-04-26 19:46 | 54.13643 | -25.26862 | 35138 ft | 418 kts | 277° |
| 2026-04-26 19:46 | 54.14583 | -25.36641 | 35131 ft | 418 kts | 276° |
| 2026-04-26 19:47 | 54.15208 | -25.43182 | 35127 ft | 418 kts | 276° |
| 2026-04-26 19:47 | 54.16444 | -25.56216 | 35119 ft | 418 kts | 276° |
| 2026-04-26 19:48 | 54.17369 | -25.66004 | 35116 ft | 418 kts | 276° |
| 2026-04-26 19:48 | 54.18140 | -25.74212 | 35112 ft | 418 kts | 276° |
| 2026-04-26 19:49 | 54.19047 | -25.84011 | 35110 ft | 418 kts | 276° |
| 2026-04-26 19:49 | 54.19939 | -25.93757 | 35106 ft | 418 kts | 275° |
| 2026-04-26 19:50 | 54.20833 | -26.03565 | 35101 ft | 418 kts | 275° |
| 2026-04-26 19:50 | 54.21725 | -26.13386 | 35093 ft | 418 kts | 275° |
| 2026-04-26 19:51 | 54.22602 | -26.23211 | 35087 ft | 418 kts | 275° |
| 2026-04-26 19:51 | 54.23466 | -26.33039 | 35082 ft | 418 kts | 275° |
| 2026-04-26 19:52 | 54.24331 | -26.42876 | 35078 ft | 418 kts | 275° |
| 2026-04-26 19:52 | 54.25187 | -26.52717 | 35068 ft | 418 kts | 274° |
| 2026-04-26 19:53 | 54.26030 | -26.62556 | 35069 ft | 418 kts | 274° |
| 2026-04-26 19:53 | 54.26871 | -26.72404 | 35059 ft | 418 kts | 274° |
| 2026-04-26 19:54 | 54.27696 | -26.82257 | 35056 ft | 418 kts | 274° |
| 2026-04-26 19:54 | 54.28513 | -26.92117 | 35053 ft | 419 kts | 274° |
| 2026-04-26 19:55 | 54.29330 | -27.01988 | 35044 ft | 419 kts | 274° |
| 2026-04-26 19:55 | 54.30137 | -27.11857 | 35040 ft | 419 kts | 273° |
| 2026-04-26 19:56 | 54.30937 | -27.21737 | 35036 ft | 419 kts | 273° |
| 2026-04-26 19:56 | 54.31735 | -27.31620 | 35034 ft | 419 kts | 273° |
| 2026-04-26 19:57 | 54.32517 | -27.41515 | 35029 ft | 419 kts | 273° |
| 2026-04-26 19:57 | 54.33285 | -27.51359 | 35023 ft | 419 kts | 272° |
| 2026-04-26 19:58 | 54.34054 | -27.61325 | 35013 ft | 419 kts | 272° |
| 2026-04-26 19:58 | 54.34819 | -27.71246 | 35012 ft | 420 kts | 272° |
| 2026-04-26 19:59 | 54.35563 | -27.81164 | 35010 ft | 420 kts | 272° |
| 2026-04-26 19:59 | 54.36299 | -27.91014 | 34999 ft | 420 kts | 272° |
| 2026-04-26 20:00 | 54.37033 | -28.00941 | 34994 ft | 420 kts | 272° |
| 2026-04-26 20:00 | 54.37767 | -28.10868 | 34991 ft | 420 kts | 272° |
| 2026-04-26 20:01 | 54.38487 | -28.20801 | 34985 ft | 419 kts | 271° |
| 2026-04-26 20:01 | 54.39191 | -28.30733 | 34985 ft | 419 kts | 271° |
| 2026-04-26 20:02 | 54.39897 | -28.40672 | 34975 ft | 419 kts | 271° |
| 2026-04-26 20:02 | 54.40474 | -28.48930 | 34974 ft | 419 kts | 271° |
| 2026-04-26 20:03 | 54.41280 | -28.60537 | 34968 ft | 419 kts | 271° |
| 2026-04-26 20:03 | 54.41959 | -28.70486 | 34950 ft | 419 kts | 271° |
| 2026-04-26 20:04 | 54.42623 | -28.80424 | 34952 ft | 419 kts | 271° |
| 2026-04-26 20:04 | 54.43276 | -28.90368 | 34953 ft | 419 kts | 271° |
| 2026-04-26 20:05 | 54.43928 | -29.00303 | 34947 ft | 419 kts | 270° |
| 2026-04-26 20:05 | 54.44577 | -29.10244 | 34942 ft | 419 kts | 270° |
| 2026-04-26 20:06 | 54.45209 | -29.20131 | 34935 ft | 418 kts | 270° |
| 2026-04-26 20:06 | 54.45828 | -29.30077 | 34925 ft | 418 kts | 270° |
| 2026-04-26 20:07 | 54.46453 | -29.40020 | 34922 ft | 418 kts | 270° |
| 2026-04-26 20:07 | 54.47066 | -29.49962 | 34914 ft | 418 kts | 270° |
| 2026-04-26 20:08 | 54.47659 | -29.59900 | 34911 ft | 418 kts | 270° |
| 2026-04-26 20:08 | 54.48255 | -29.69863 | 34904 ft | 418 kts | 270° |
| 2026-04-26 20:09 | 54.48845 | -29.79820 | 34899 ft | 418 kts | 269° |
| 2026-04-26 20:09 | 54.49427 | -29.89773 | 34893 ft | 418 kts | 269° |
| 2026-04-26 20:10 | 54.49981 | -29.99714 | 34888 ft | 417 kts | 269° |
| 2026-04-26 20:10 | 54.50435 | -30.09604 | 34885 ft | 416 kts | 268° |
| 2026-04-26 20:11 | 54.50816 | -30.19531 | 34881 ft | 416 kts | 267° |
| 2026-04-26 20:12 | 54.51372 | -30.34411 | 34874 ft | 415 kts | 267° |
| 2026-04-26 20:12 | 54.51752 | -30.44315 | 34868 ft | 415 kts | 267° |
| 2026-04-26 20:13 | 54.52126 | -30.54210 | 34870 ft | 414 kts | 267° |
| 2026-04-26 20:13 | 54.52490 | -30.64093 | 34862 ft | 413 kts | 267° |
| 2026-04-26 20:14 | 54.52843 | -30.73964 | 34859 ft | 413 kts | 267° |
| 2026-04-26 20:14 | 54.53184 | -30.83829 | 34850 ft | 412 kts | 266° |
| 2026-04-26 20:15 | 54.53511 | -30.93664 | 34851 ft | 412 kts | 266° |
| 2026-04-26 20:15 | 54.53839 | -31.03509 | 34848 ft | 411 kts | 266° |
| 2026-04-26 20:16 | 54.54163 | -31.13336 | 34843 ft | 411 kts | 266° |
| 2026-04-26 20:16 | 54.54471 | -31.23156 | 34836 ft | 411 kts | 266° |
| 2026-04-26 20:17 | 54.54766 | -31.32912 | 34835 ft | 410 kts | 266° |
| 2026-04-26 20:17 | 54.55064 | -31.42719 | 34830 ft | 410 kts | 266° |
| 2026-04-26 20:18 | 54.55348 | -31.52529 | 34829 ft | 410 kts | 265° |
| 2026-04-26 20:18 | 54.55619 | -31.62342 | 34822 ft | 409 kts | 265° |
| 2026-04-26 20:19 | 54.55889 | -31.72134 | 34824 ft | 409 kts | 265° |
| 2026-04-26 20:19 | 54.56157 | -31.81937 | 34823 ft | 409 kts | 265° |
| 2026-04-26 20:20 | 54.56413 | -31.91728 | 34818 ft | 409 kts | 265° |
| 2026-04-26 20:20 | 54.56657 | -32.01521 | 34817 ft | 409 kts | 265° |
| 2026-04-26 20:21 | 54.56889 | -32.11309 | 34817 ft | 409 kts | 265° |
| 2026-04-26 20:21 | 54.57115 | -32.21095 | 34812 ft | 409 kts | 264° |
| 2026-04-26 20:22 | 54.57344 | -32.30879 | 34814 ft | 408 kts | 264° |
| 2026-04-26 20:22 | 54.57556 | -32.40640 | 34807 ft | 408 kts | 264° |
| 2026-04-26 20:23 | 54.57766 | -32.50437 | 34807 ft | 408 kts | 264° |
| 2026-04-26 20:23 | 54.57966 | -32.60222 | 34800 ft | 408 kts | 264° |
| 2026-04-26 20:24 | 54.58153 | -32.69993 | 34801 ft | 408 kts | 264° |
| 2026-04-26 20:24 | 54.58327 | -32.79696 | 34803 ft | 407 kts | 263° |
| 2026-04-26 20:25 | 54.58496 | -32.89470 | 34800 ft | 407 kts | 263° |
| 2026-04-26 20:25 | 54.58660 | -32.99227 | 34801 ft | 407 kts | 263° |
| 2026-04-26 20:26 | 54.58821 | -33.08987 | 34801 ft | 406 kts | 263° |
| 2026-04-26 20:26 | 54.58972 | -33.18666 | 34799 ft | 406 kts | 263° |
| 2026-04-26 20:27 | 54.59115 | -33.28409 | 34807 ft | 406 kts | 263° |
| 2026-04-26 20:27 | 54.59245 | -33.38116 | 34798 ft | 405 kts | 263° |
| 2026-04-26 20:28 | 54.59367 | -33.47837 | 34794 ft | 405 kts | 262° |
| 2026-04-26 20:28 | 54.59492 | -33.57533 | 34796 ft | 404 kts | 262° |
| 2026-04-26 20:29 | 54.59604 | -33.67241 | 34786 ft | 404 kts | 262° |
| 2026-04-26 20:29 | 54.59713 | -33.76924 | 34787 ft | 404 kts | 262° |
| 2026-04-26 20:30 | 54.59811 | -33.86625 | 34783 ft | 404 kts | 262° |
| 2026-04-26 20:30 | 54.59889 | -33.96304 | 34781 ft | 404 kts | 262° |
| 2026-04-26 20:31 | 54.59958 | -34.05939 | 34778 ft | 404 kts | 262° |
| 2026-04-26 20:31 | 54.60034 | -34.15634 | 34778 ft | 404 kts | 262° |
| 2026-04-26 20:32 | 54.60104 | -34.25338 | 34772 ft | 404 kts | 261° |
| 2026-04-26 20:32 | 54.60154 | -34.35036 | 34767 ft | 404 kts | 261° |
| 2026-04-26 20:33 | 54.60200 | -34.44745 | 34770 ft | 405 kts | 261° |
| 2026-04-26 20:33 | 54.60245 | -34.54408 | 34770 ft | 405 kts | 261° |
| 2026-04-26 20:34 | 54.60273 | -34.64119 | 34768 ft | 405 kts | 261° |
| 2026-04-26 20:34 | 54.60289 | -34.73844 | 34768 ft | 406 kts | 261° |
| 2026-04-26 20:35 | 54.60309 | -34.83575 | 34762 ft | 406 kts | 261° |
| 2026-04-26 20:35 | 54.60323 | -34.93313 | 34761 ft | 406 kts | 260° |
| 2026-04-26 20:36 | 54.60322 | -35.03074 | 34762 ft | 406 kts | 260° |
| 2026-04-26 20:36 | 54.60316 | -35.12780 | 34759 ft | 407 kts | 260° |
| 2026-04-26 20:37 | 54.60297 | -35.22531 | 34753 ft | 407 kts | 260° |
| 2026-04-26 20:37 | 54.60279 | -35.32300 | 34753 ft | 407 kts | 260° |
| 2026-04-26 20:38 | 54.60253 | -35.42078 | 34753 ft | 408 kts | 259° |
| 2026-04-26 20:38 | 54.60211 | -35.51870 | 34751 ft | 408 kts | 259° |
| 2026-04-26 20:39 | 54.60170 | -35.60019 | 34747 ft | 409 kts | 259° |
| 2026-04-26 20:39 | 54.60119 | -35.69831 | 34748 ft | 409 kts | 259° |
| 2026-04-26 20:40 | 54.60066 | -35.79653 | 34746 ft | 409 kts | 259° |
| 2026-04-26 20:40 | 54.59998 | -35.89471 | 34739 ft | 410 kts | 259° |
| 2026-04-26 20:41 | 54.59919 | -35.99295 | 34744 ft | 410 kts | 259° |
| 2026-04-26 20:41 | 54.59833 | -36.09149 | 34739 ft | 410 kts | 259° |
| 2026-04-26 20:42 | 54.59742 | -36.18993 | 34735 ft | 411 kts | 259° |
| 2026-04-26 20:42 | 54.59645 | -36.28807 | 34733 ft | 411 kts | 258° |
| 2026-04-26 20:43 | 54.59536 | -36.38668 | 34726 ft | 411 kts | 258° |
| 2026-04-26 20:43 | 54.59418 | -36.48541 | 34726 ft | 411 kts | 258° |
| 2026-04-26 20:44 | 54.59295 | -36.58420 | 34721 ft | 411 kts | 258° |
| 2026-04-26 20:44 | 54.59163 | -36.68280 | 34718 ft | 412 kts | 258° |
| 2026-04-26 20:45 | 54.59017 | -36.78103 | 34717 ft | 412 kts | 258° |
| 2026-04-26 20:45 | 54.58859 | -36.88000 | 34714 ft | 412 kts | 258° |
| 2026-04-26 20:46 | 54.58708 | -36.97913 | 34710 ft | 413 kts | 258° |
| 2026-04-26 20:46 | 54.58547 | -37.07814 | 34704 ft | 414 kts | 258° |
| 2026-04-26 20:47 | 54.58377 | -37.17669 | 34702 ft | 414 kts | 259° |
| 2026-04-26 20:47 | 54.58194 | -37.27598 | 34697 ft | 415 kts | 259° |
| 2026-04-26 20:48 | 54.58001 | -37.37553 | 34687 ft | 416 kts | 259° |
| 2026-04-26 20:48 | 54.57802 | -37.47524 | 34684 ft | 416 kts | 259° |
| 2026-04-26 20:49 | 54.57596 | -37.57515 | 34682 ft | 417 kts | 259° |
| 2026-04-26 20:49 | 54.57383 | -37.67525 | 34679 ft | 418 kts | 259° |
| 2026-04-26 20:50 | 54.57157 | -37.77549 | 34674 ft | 419 kts | 259° |
| 2026-04-26 20:50 | 54.56919 | -37.87614 | 34674 ft | 420 kts | 259° |
| 2026-04-26 20:51 | 54.56673 | -37.97616 | 34664 ft | 421 kts | 259° |
| 2026-04-26 20:51 | 54.56413 | -38.07693 | 34660 ft | 422 kts | 259° |
| 2026-04-26 20:52 | 54.56151 | -38.17803 | 34653 ft | 423 kts | 259° |
| 2026-04-26 20:52 | 54.55889 | -38.27945 | 34648 ft | 425 kts | 259° |
| 2026-04-26 20:53 | 54.55619 | -38.38146 | 34642 ft | 426 kts | 259° |
| 2026-04-26 20:53 | 54.55326 | -38.48363 | 34628 ft | 428 kts | 259° |
| 2026-04-26 20:54 | 54.55017 | -38.58641 | 34632 ft | 430 kts | 259° |
| 2026-04-26 20:54 | 54.54708 | -38.68912 | 34626 ft | 432 kts | 260° |
| 2026-04-26 20:55 | 54.54395 | -38.79286 | 34618 ft | 434 kts | 260° |
| 2026-04-26 20:55 | 54.54063 | -38.89702 | 34621 ft | 436 kts | 260° |
| 2026-04-26 20:56 | 54.53721 | -39.00174 | 34616 ft | 438 kts | 260° |
| 2026-04-26 20:56 | 54.53369 | -39.10676 | 34611 ft | 440 kts | 261° |
| 2026-04-26 20:57 | 54.53012 | -39.21143 | 34619 ft | 442 kts | 261° |
| 2026-04-26 20:57 | 54.52638 | -39.31715 | 34614 ft | 443 kts | 261° |
| 2026-04-26 20:58 | 54.52253 | -39.42335 | 34614 ft | 445 kts | 261° |
| 2026-04-26 20:58 | 54.51856 | -39.52978 | 34613 ft | 446 kts | 261° |
| 2026-04-26 20:59 | 54.51455 | -39.63656 | 34613 ft | 447 kts | 261° |
| 2026-04-26 20:59 | 54.51046 | -39.74359 | 34611 ft | 448 kts | 261° |
| 2026-04-26 21:00 | 54.50623 | -39.85004 | 34612 ft | 449 kts | 262° |
| 2026-04-26 21:00 | 54.50178 | -39.95744 | 34613 ft | 450 kts | 262° |
| 2026-04-26 21:01 | 54.49669 | -40.06488 | 34616 ft | 450 kts | 261° |
| 2026-04-26 21:01 | 54.49055 | -40.17186 | 34611 ft | 450 kts | 260° |
| 2026-04-26 21:02 | 54.48402 | -40.27855 | 34608 ft | 451 kts | 260° |
| 2026-04-26 21:02 | 54.47746 | -40.38588 | 34606 ft | 451 kts | 260° |
| 2026-04-26 21:03 | 54.47095 | -40.49329 | 34608 ft | 452 kts | 261° |
| 2026-04-26 21:03 | 54.46438 | -40.60092 | 34600 ft | 453 kts | 261° |
| 2026-04-26 21:04 | 54.45773 | -40.70856 | 34595 ft | 453 kts | 261° |
| 2026-04-26 21:04 | 54.45091 | -40.81639 | 34599 ft | 454 kts | 261° |
| 2026-04-26 21:05 | 54.44403 | -40.92376 | 34593 ft | 455 kts | 261° |
| 2026-04-26 21:05 | 54.43704 | -41.03186 | 34587 ft | 456 kts | 261° |
| 2026-04-26 21:06 | 54.42993 | -41.14020 | 34586 ft | 457 kts | 261° |
| 2026-04-26 21:06 | 54.42265 | -41.24871 | 34585 ft | 458 kts | 261° |
| 2026-04-26 21:07 | 54.41526 | -41.35734 | 34583 ft | 458 kts | 261° |
| 2026-04-26 21:07 | 54.40784 | -41.46613 | 34576 ft | 459 kts | 261° |
| 2026-04-26 21:08 | 54.40024 | -41.57502 | 34580 ft | 460 kts | 261° |
| 2026-04-26 21:08 | 54.39253 | -41.68330 | 34578 ft | 460 kts | 261° |
| 2026-04-26 21:09 | 54.38477 | -41.79242 | 34577 ft | 461 kts | 261° |
| 2026-04-26 21:09 | 54.37688 | -41.90159 | 34577 ft | 462 kts | 261° |
| 2026-04-26 21:10 | 54.36882 | -42.01085 | 34576 ft | 462 kts | 261° |
| 2026-04-26 21:10 | 54.36071 | -42.12017 | 34575 ft | 462 kts | 261° |
| 2026-04-26 21:11 | 54.35260 | -42.22962 | 34574 ft | 463 kts | 261° |
| 2026-04-26 21:11 | 54.34429 | -42.33893 | 34571 ft | 463 kts | 261° |
| 2026-04-26 21:12 | 54.33580 | -42.44834 | 34572 ft | 463 kts | 261° |
| 2026-04-26 21:12 | 54.32722 | -42.55781 | 34565 ft | 463 kts | 261° |
| 2026-04-26 21:13 | 54.31863 | -42.66650 | 34567 ft | 464 kts | 261° |
| 2026-04-26 21:13 | 54.30996 | -42.77606 | 34560 ft | 464 kts | 261° |
| 2026-04-26 21:14 | 54.30106 | -42.88571 | 34559 ft | 465 kts | 261° |
| 2026-04-26 21:14 | 54.29199 | -42.99538 | 34553 ft | 466 kts | 261° |
| 2026-04-26 21:15 | 54.28293 | -43.10519 | 34552 ft | 466 kts | 261° |
| 2026-04-26 21:15 | 54.27374 | -43.21505 | 34547 ft | 467 kts | 261° |
| 2026-04-26 21:16 | 54.26449 | -43.32502 | 34544 ft | 468 kts | 262° |
| 2026-04-26 21:16 | 54.25509 | -43.43531 | 34541 ft | 468 kts | 262° |
| 2026-04-26 21:17 | 54.24553 | -43.54555 | 34538 ft | 469 kts | 262° |
| 2026-04-26 21:17 | 54.23593 | -43.65535 | 34538 ft | 470 kts | 262° |
| 2026-04-26 21:18 | 54.22616 | -43.76591 | 34540 ft | 471 kts | 262° |
| 2026-04-26 21:18 | 54.21625 | -43.87663 | 34544 ft | 471 kts | 262° |
| 2026-04-26 21:19 | 54.20628 | -43.98728 | 34545 ft | 471 kts | 262° |
| 2026-04-26 21:19 | 54.19618 | -44.09791 | 34543 ft | 472 kts | 262° |
| 2026-04-26 21:20 | 54.18591 | -44.20867 | 34543 ft | 472 kts | 262° |
| 2026-04-26 21:20 | 54.17559 | -44.31938 | 34540 ft | 473 kts | 262° |
| 2026-04-26 21:21 | 54.16522 | -44.43028 | 34535 ft | 473 kts | 263° |
| 2026-04-26 21:21 | 54.15475 | -44.54117 | 34533 ft | 474 kts | 263° |
| 2026-04-26 21:22 | 54.14402 | -44.65220 | 34534 ft | 475 kts | 263° |
| 2026-04-26 21:22 | 54.13314 | -44.76327 | 34529 ft | 475 kts | 263° |
| 2026-04-26 21:23 | 54.11684 | -44.92961 | 34531 ft | 476 kts | 263° |
| 2026-04-26 21:23 | 54.10576 | -45.04096 | 34530 ft | 477 kts | 263° |
| 2026-04-26 21:24 | 54.09460 | -45.15242 | 34534 ft | 478 kts | 263° |
| 2026-04-26 21:24 | 54.08328 | -45.26399 | 34533 ft | 478 kts | 263° |
| 2026-04-26 21:25 | 54.07185 | -45.37557 | 34530 ft | 479 kts | 263° |
| 2026-04-26 21:25 | 54.06044 | -45.48667 | 34529 ft | 479 kts | 263° |
| 2026-04-26 21:26 | 54.04875 | -45.59834 | 34529 ft | 480 kts | 263° |
| 2026-04-26 21:26 | 54.03689 | -45.71028 | 34527 ft | 481 kts | 263° |
| 2026-04-26 21:27 | 54.02500 | -45.82224 | 34525 ft | 481 kts | 264° |
| 2026-04-26 21:27 | 54.01301 | -45.93433 | 34522 ft | 482 kts | 264° |
| 2026-04-26 21:28 | 54.00088 | -46.04656 | 34526 ft | 483 kts | 264° |
| 2026-04-26 21:28 | 53.98856 | -46.15904 | 34524 ft | 484 kts | 264° |
| 2026-04-26 21:29 | 53.97607 | -46.27175 | 34525 ft | 486 kts | 264° |
| 2026-04-26 21:29 | 53.96561 | -46.36555 | 34528 ft | 486 kts | 264° |
| 2026-04-26 21:30 | 53.95294 | -46.47852 | 34526 ft | 488 kts | 264° |
| 2026-04-26 21:30 | 53.94016 | -46.59177 | 34531 ft | 489 kts | 264° |
| 2026-04-26 21:31 | 53.92725 | -46.70510 | 34539 ft | 490 kts | 264° |
| 2026-04-26 21:31 | 53.91413 | -46.81854 | 34542 ft | 491 kts | 264° |
| 2026-04-26 21:32 | 53.90086 | -46.93227 | 34551 ft | 492 kts | 264° |
| 2026-04-26 21:32 | 53.88754 | -47.04606 | 34554 ft | 493 kts | 264° |
| 2026-04-26 21:33 | 53.87407 | -47.16009 | 34561 ft | 494 kts | 264° |
| 2026-04-26 21:33 | 53.86047 | -47.27414 | 34568 ft | 494 kts | 264° |
| 2026-04-26 21:34 | 53.84676 | -47.38837 | 34582 ft | 495 kts | 264° |
| 2026-04-26 21:34 | 53.83287 | -47.50246 | 34596 ft | 495 kts | 264° |
| 2026-04-26 21:35 | 53.81894 | -47.61659 | 34604 ft | 495 kts | 264° |
| 2026-04-26 21:35 | 53.80490 | -47.73061 | 34609 ft | 495 kts | 264° |
| 2026-04-26 21:36 | 53.79076 | -47.84378 | 34615 ft | 495 kts | 264° |
| 2026-04-26 21:36 | 53.77643 | -47.95752 | 34633 ft | 495 kts | 264° |
| 2026-04-26 21:37 | 53.76204 | -48.07120 | 34637 ft | 494 kts | 264° |
| 2026-04-26 21:37 | 53.74760 | -48.18473 | 34648 ft | 494 kts | 264° |
| 2026-04-26 21:38 | 53.73301 | -48.29810 | 34651 ft | 494 kts | 264° |
| 2026-04-26 21:38 | 53.71838 | -48.41133 | 34661 ft | 493 kts | 264° |
| 2026-04-26 21:39 | 53.70364 | -48.52438 | 34664 ft | 493 kts | 264° |
| 2026-04-26 21:39 | 53.68873 | -48.63734 | 34671 ft | 493 kts | 264° |
| 2026-04-26 21:40 | 53.67370 | -48.75002 | 34676 ft | 492 kts | 264° |
| 2026-04-26 21:40 | 53.65874 | -48.86260 | 34682 ft | 492 kts | 264° |
| 2026-04-26 21:41 | 53.64365 | -48.97503 | 34687 ft | 492 kts | 264° |
| 2026-04-26 21:41 | 53.62832 | -49.08748 | 34694 ft | 492 kts | 264° |
| 2026-04-26 21:42 | 53.61290 | -49.19966 | 34701 ft | 491 kts | 264° |
| 2026-04-26 21:42 | 53.59750 | -49.31171 | 34710 ft | 491 kts | 264° |
| 2026-04-26 21:43 | 53.58203 | -49.42358 | 34716 ft | 491 kts | 263° |
| 2026-04-26 21:43 | 53.56635 | -49.53547 | 34723 ft | 491 kts | 263° |
| 2026-04-26 21:44 | 53.55064 | -49.64708 | 34729 ft | 491 kts | 263° |
| 2026-04-26 21:44 | 53.53487 | -49.75865 | 34733 ft | 491 kts | 263° |
| 2026-04-26 21:45 | 53.51898 | -49.86942 | 34741 ft | 491 kts | 263° |
| 2026-04-26 21:45 | 53.50270 | -49.98074 | 34747 ft | 492 kts | 261° |
| 2026-04-26 21:46 | 53.47846 | -50.08935 | 34755 ft | 498 kts | 254° |
| 2026-04-26 21:46 | 53.45226 | -50.19714 | 34762 ft | 498 kts | 254° |
| 2026-04-26 21:47 | 53.42605 | -50.30476 | 34769 ft | 498 kts | 254° |
| 2026-04-26 21:47 | 53.39973 | -50.41240 | 34776 ft | 499 kts | 253° |
| 2026-04-26 21:48 | 53.37328 | -50.51980 | 34779 ft | 499 kts | 253° |
| 2026-04-26 21:48 | 53.34670 | -50.62709 | 34783 ft | 499 kts | 253° |
| 2026-04-26 21:49 | 53.31998 | -50.73432 | 34788 ft | 499 kts | 253° |
| 2026-04-26 21:49 | 53.29326 | -50.84144 | 34791 ft | 499 kts | 253° |
| 2026-04-26 21:50 | 53.27089 | -50.93039 | 34797 ft | 500 kts | 253° |
| 2026-04-26 21:50 | 53.23953 | -51.05465 | 34806 ft | 500 kts | 253° |
| 2026-04-26 21:51 | 53.21252 | -51.16151 | 34815 ft | 500 kts | 253° |
| 2026-04-26 21:51 | 53.18529 | -51.26821 | 34826 ft | 500 kts | 253° |
| 2026-04-26 21:52 | 53.15798 | -51.37489 | 34830 ft | 500 kts | 253° |
| 2026-04-26 21:52 | 53.13050 | -51.48128 | 34841 ft | 500 kts | 252° |
| 2026-04-26 21:53 | 53.10319 | -51.58697 | 34835 ft | 500 kts | 252° |
| 2026-04-26 21:53 | 53.07564 | -51.69324 | 34847 ft | 500 kts | 252° |
| 2026-04-26 21:54 | 53.04799 | -51.79933 | 34851 ft | 500 kts | 252° |
| 2026-04-26 21:54 | 53.02023 | -51.90545 | 34859 ft | 500 kts | 252° |
| 2026-04-26 21:55 | 52.99235 | -52.01139 | 34864 ft | 501 kts | 252° |
| 2026-04-26 21:55 | 52.96427 | -52.11717 | 34875 ft | 501 kts | 252° |
| 2026-04-26 21:56 | 52.93622 | -52.22284 | 34882 ft | 501 kts | 252° |
| 2026-04-26 21:56 | 52.90804 | -52.32841 | 34889 ft | 501 kts | 252° |
| 2026-04-26 21:57 | 52.87993 | -52.43306 | 34897 ft | 501 kts | 252° |
| 2026-04-26 21:57 | 52.85155 | -52.53826 | 34906 ft | 501 kts | 251° |
| 2026-04-26 21:58 | 52.82315 | -52.64345 | 34918 ft | 501 kts | 251° |
| 2026-04-26 21:58 | 52.79467 | -52.74854 | 34923 ft | 501 kts | 251° |
| 2026-04-26 21:59 | 52.76599 | -52.85339 | 34930 ft | 501 kts | 251° |
| 2026-04-26 21:59 | 52.73717 | -52.95797 | 34932 ft | 501 kts | 251° |
| 2026-04-26 22:00 | 52.70828 | -53.06257 | 34946 ft | 501 kts | 251° |
| 2026-04-26 22:00 | 52.67935 | -53.16704 | 34957 ft | 501 kts | 251° |
| 2026-04-26 22:01 | 52.65039 | -53.27140 | 34962 ft | 501 kts | 251° |
| 2026-04-26 22:01 | 52.62127 | -53.37563 | 34968 ft | 501 kts | 250° |
| 2026-04-26 22:02 | 52.59704 | -53.46197 | 34971 ft | 501 kts | 250° |
| 2026-04-26 22:02 | 52.56296 | -53.58275 | 34981 ft | 501 kts | 250° |
| 2026-04-26 22:03 | 52.53359 | -53.68660 | 34989 ft | 501 kts | 250° |
| 2026-04-26 22:03 | 52.50412 | -53.79016 | 34981 ft | 501 kts | 250° |
| 2026-04-26 22:04 | 52.47453 | -53.89361 | 34992 ft | 501 kts | 250° |
| 2026-04-26 22:04 | 52.44484 | -53.99695 | 35016 ft | 501 kts | 250° |
| 2026-04-26 22:05 | 52.41509 | -54.10017 | 35028 ft | 501 kts | 250° |
| 2026-04-26 22:05 | 52.38537 | -54.20329 | 35037 ft | 501 kts | 250° |
| 2026-04-26 22:06 | 52.35541 | -54.30643 | 35045 ft | 501 kts | 249° |
| 2026-04-26 22:06 | 52.32531 | -54.40918 | 35054 ft | 501 kts | 249° |
| 2026-04-26 22:07 | 52.29512 | -54.51196 | 35053 ft | 501 kts | 249° |
| 2026-04-26 22:07 | 52.26997 | -54.59715 | 35064 ft | 501 kts | 249° |
| 2026-04-26 22:08 | 52.23442 | -54.71697 | 35335 ft | 502 kts | 249° |
| 2026-04-26 22:08 | 52.21925 | -54.76812 | 35689 ft | 500 kts | 248° |
| 2026-04-26 22:08 | 52.20429 | -54.81854 | 35994 ft | 500 kts | 248° |
| 2026-04-26 22:09 | 52.17398 | -54.92043 | 36075 ft | 499 kts | 248° |
| 2026-04-26 22:09 | 52.14359 | -55.02195 | 36077 ft | 499 kts | 248° |
| 2026-04-26 22:10 | 52.11303 | -55.12331 | 36078 ft | 499 kts | 248° |
| 2026-04-26 22:10 | 52.08238 | -55.22458 | 36081 ft | 499 kts | 247° |
| 2026-04-26 22:11 | 52.05148 | -55.32562 | 36095 ft | 499 kts | 247° |
| 2026-04-26 22:11 | 52.02052 | -55.42650 | 36098 ft | 499 kts | 247° |
| 2026-04-26 22:12 | 51.98949 | -55.52746 | 36093 ft | 499 kts | 247° |
| 2026-04-26 22:12 | 51.95839 | -55.62813 | 36102 ft | 499 kts | 247° |
| 2026-04-26 22:13 | 51.92704 | -55.72886 | 36110 ft | 500 kts | 247° |
| 2026-04-26 22:13 | 51.89589 | -55.82880 | 36111 ft | 500 kts | 246° |
| 2026-04-26 22:14 | 51.86449 | -55.92927 | 36110 ft | 500 kts | 246° |
| 2026-04-26 22:14 | 51.83294 | -56.02973 | 36112 ft | 500 kts | 246° |
| 2026-04-26 22:15 | 51.80665 | -56.11294 | 36105 ft | 501 kts | 246° |
| 2026-04-26 22:15 | 51.76950 | -56.23020 | 36112 ft | 501 kts | 246° |
| 2026-04-26 22:16 | 51.74308 | -56.31322 | 36118 ft | 500 kts | 246° |
| 2026-04-26 22:16 | 51.71119 | -56.41299 | 36120 ft | 500 kts | 246° |
| 2026-04-26 22:17 | 51.67926 | -56.51252 | 36128 ft | 500 kts | 246° |
| 2026-04-26 22:17 | 51.64730 | -56.61196 | 36138 ft | 500 kts | 245° |
| 2026-04-26 22:18 | 51.61525 | -56.71110 | 36131 ft | 499 kts | 245° |
| 2026-04-26 22:18 | 51.58310 | -56.81014 | 36155 ft | 499 kts | 245° |
| 2026-04-26 22:19 | 51.55100 | -56.90882 | 36153 ft | 498 kts | 245° |
| 2026-04-26 22:19 | 51.51881 | -57.00736 | 36156 ft | 498 kts | 245° |
| 2026-04-26 22:20 | 51.48676 | -57.10487 | 36152 ft | 497 kts | 245° |
| 2026-04-26 22:20 | 51.45442 | -57.20281 | 36162 ft | 497 kts | 244° |
| 2026-04-26 22:21 | 51.42206 | -57.30049 | 36149 ft | 496 kts | 244° |
| 2026-04-26 22:21 | 51.38964 | -57.39803 | 36155 ft | 496 kts | 244° |
| 2026-04-26 22:22 | 51.35721 | -57.49539 | 36159 ft | 495 kts | 244° |
| 2026-04-26 22:22 | 51.32472 | -57.59261 | 36166 ft | 495 kts | 244° |
| 2026-04-26 22:23 | 51.29215 | -57.68950 | 36171 ft | 495 kts | 244° |
| 2026-04-26 22:23 | 51.25948 | -57.78621 | 36171 ft | 494 kts | 244° |
| 2026-04-26 22:24 | 51.22673 | -57.88270 | 36174 ft | 494 kts | 243° |
| 2026-04-26 22:24 | 51.19397 | -57.97904 | 36176 ft | 494 kts | 243° |
| 2026-04-26 22:25 | 51.16115 | -58.07529 | 36178 ft | 494 kts | 243° |
| 2026-04-26 22:25 | 51.12829 | -58.17122 | 36186 ft | 494 kts | 243° |
| 2026-04-26 22:26 | 51.09540 | -58.26711 | 36176 ft | 493 kts | 243° |
| 2026-04-26 22:26 | 51.06240 | -58.36294 | 36182 ft | 493 kts | 243° |
| 2026-04-26 22:27 | 51.02950 | -58.45778 | 36180 ft | 493 kts | 243° |
| 2026-04-26 22:27 | 50.99638 | -58.55313 | 36181 ft | 493 kts | 243° |
| 2026-04-26 22:28 | 50.96313 | -58.64825 | 36186 ft | 493 kts | 243° |
| 2026-04-26 22:28 | 50.92982 | -58.74317 | 36186 ft | 492 kts | 243° |
| 2026-04-26 22:29 | 50.89644 | -58.83797 | 36181 ft | 492 kts | 242° |
| 2026-04-26 22:29 | 50.86301 | -58.93270 | 36185 ft | 492 kts | 242° |
| 2026-04-26 22:30 | 50.82978 | -59.02657 | 36180 ft | 492 kts | 242° |
| 2026-04-26 22:30 | 50.79623 | -59.12075 | 36187 ft | 492 kts | 242° |
| 2026-04-26 22:31 | 50.76266 | -59.21486 | 36180 ft | 492 kts | 242° |
| 2026-04-26 22:31 | 50.72893 | -59.30878 | 36189 ft | 492 kts | 242° |
| 2026-04-26 22:32 | 50.69514 | -59.40264 | 36183 ft | 492 kts | 242° |
| 2026-04-26 22:32 | 50.66138 | -59.49626 | 36188 ft | 492 kts | 242° |
| 2026-04-26 22:33 | 50.61048 | -59.63660 | 36178 ft | 492 kts | 242° |
| 2026-04-26 22:34 | 50.57638 | -59.72998 | 36187 ft | 492 kts | 242° |
| 2026-04-26 22:34 | 50.54234 | -59.82327 | 36180 ft | 492 kts | 242° |
| 2026-04-26 22:35 | 50.50819 | -59.91649 | 36189 ft | 492 kts | 241° |
| 2026-04-26 22:35 | 50.47393 | -60.00941 | 36188 ft | 492 kts | 241° |
| 2026-04-26 22:36 | 50.43955 | -60.10229 | 36195 ft | 492 kts | 241° |
| 2026-04-26 22:36 | 50.40517 | -60.19509 | 36196 ft | 492 kts | 241° |
| 2026-04-26 22:37 | 50.37075 | -60.28776 | 36203 ft | 492 kts | 241° |
| 2026-04-26 22:37 | 50.33615 | -60.38006 | 36201 ft | 492 kts | 241° |
| 2026-04-26 22:38 | 50.30166 | -60.47184 | 36208 ft | 492 kts | 241° |
| 2026-04-26 22:38 | 50.26695 | -60.56402 | 36204 ft | 492 kts | 241° |
| 2026-04-26 22:39 | 50.23223 | -60.65606 | 36213 ft | 492 kts | 241° |
| 2026-04-26 22:39 | 50.19741 | -60.74797 | 36213 ft | 492 kts | 240° |
| 2026-04-26 22:40 | 50.16243 | -60.83963 | 36219 ft | 491 kts | 240° |
| 2026-04-26 22:40 | 50.12740 | -60.93116 | 36218 ft | 491 kts | 240° |
| 2026-04-26 22:41 | 50.09242 | -61.02252 | 36229 ft | 491 kts | 240° |
| 2026-04-26 22:41 | 50.05739 | -61.11373 | 36217 ft | 491 kts | 240° |
| 2026-04-26 22:42 | 50.02251 | -61.20417 | 36232 ft | 491 kts | 240° |
| 2026-04-26 22:42 | 49.98731 | -61.29506 | 36222 ft | 491 kts | 240° |
| 2026-04-26 22:43 | 49.95203 | -61.38577 | 36228 ft | 491 kts | 240° |
| 2026-04-26 22:43 | 49.91673 | -61.47638 | 36224 ft | 490 kts | 240° |
| 2026-04-26 22:44 | 49.88137 | -61.56683 | 36227 ft | 490 kts | 240° |
| 2026-04-26 22:44 | 49.84602 | -61.65693 | 36229 ft | 490 kts | 240° |
| 2026-04-26 22:45 | 49.81057 | -61.74698 | 36237 ft | 489 kts | 240° |
| 2026-04-26 22:45 | 49.77502 | -61.83671 | 36243 ft | 489 kts | 240° |
| 2026-04-26 22:46 | 49.73948 | -61.92628 | 36246 ft | 488 kts | 240° |
| 2026-04-26 22:46 | 49.70400 | -62.01566 | 36254 ft | 488 kts | 240° |
| 2026-04-26 22:47 | 49.66843 | -62.10478 | 36251 ft | 487 kts | 239° |
| 2026-04-26 22:47 | 49.63303 | -62.19306 | 36257 ft | 487 kts | 239° |
| 2026-04-26 22:48 | 49.59740 | -62.28172 | 36255 ft | 486 kts | 239° |
| 2026-04-26 22:48 | 49.56172 | -62.37033 | 36259 ft | 486 kts | 239° |
| 2026-04-26 22:49 | 49.52601 | -62.45871 | 36251 ft | 486 kts | 239° |
| 2026-04-26 22:49 | 49.49022 | -62.54684 | 36260 ft | 485 kts | 239° |
| 2026-04-26 22:50 | 49.45462 | -62.63417 | 36255 ft | 485 kts | 239° |
| 2026-04-26 22:50 | 49.41878 | -62.72197 | 36259 ft | 485 kts | 239° |
| 2026-04-26 22:51 | 49.38290 | -62.80968 | 36255 ft | 484 kts | 239° |
| 2026-04-26 22:51 | 49.34697 | -62.89700 | 36264 ft | 484 kts | 239° |
| 2026-04-26 22:52 | 49.31100 | -62.98417 | 36259 ft | 483 kts | 239° |
| 2026-04-26 22:52 | 49.27499 | -63.07103 | 36265 ft | 483 kts | 239° |
| 2026-04-26 22:53 | 49.23885 | -63.15764 | 36264 ft | 482 kts | 239° |
| 2026-04-26 22:53 | 49.20287 | -63.24419 | 36271 ft | 481 kts | 239° |
| 2026-04-26 22:54 | 49.16689 | -63.33044 | 36260 ft | 481 kts | 239° |
| 2026-04-26 22:54 | 49.13106 | -63.41585 | 36267 ft | 480 kts | 239° |
| 2026-04-26 22:55 | 49.09489 | -63.50155 | 36266 ft | 480 kts | 239° |
| 2026-04-26 22:55 | 49.05872 | -63.58713 | 36272 ft | 480 kts | 239° |
| 2026-04-26 22:56 | 49.02245 | -63.67244 | 36264 ft | 479 kts | 239° |
| 2026-04-26 22:56 | 48.98622 | -63.75774 | 36269 ft | 479 kts | 239° |
| 2026-04-26 22:57 | 48.94998 | -63.84279 | 36262 ft | 479 kts | 239° |
| 2026-04-26 22:57 | 48.91369 | -63.92766 | 36268 ft | 478 kts | 239° |
| 2026-04-26 22:58 | 48.87736 | -64.01238 | 36262 ft | 478 kts | 239° |
| 2026-04-26 22:58 | 48.84101 | -64.09684 | 36254 ft | 477 kts | 239° |
| 2026-04-26 22:59 | 48.80459 | -64.18107 | 36241 ft | 477 kts | 239° |
| 2026-04-26 22:59 | 48.76837 | -64.26457 | 36234 ft | 476 kts | 239° |
| 2026-04-26 23:00 | 48.73199 | -64.34833 | 36225 ft | 476 kts | 239° |
| 2026-04-26 23:00 | 48.69555 | -64.43207 | 36230 ft | 476 kts | 239° |
| 2026-04-26 23:01 | 48.65907 | -64.51563 | 36231 ft | 475 kts | 239° |
| 2026-04-26 23:01 | 48.62252 | -64.59895 | 36234 ft | 475 kts | 239° |
| 2026-04-26 23:02 | 48.58592 | -64.68203 | 36237 ft | 475 kts | 239° |
| 2026-04-26 23:02 | 48.54939 | -64.76494 | 36247 ft | 474 kts | 239° |
| 2026-04-26 23:03 | 48.51282 | -64.84774 | 36248 ft | 474 kts | 239° |
| 2026-04-26 23:03 | 48.47624 | -64.93019 | 36257 ft | 473 kts | 239° |
| 2026-04-26 23:04 | 48.43952 | -65.01242 | 36258 ft | 473 kts | 239° |
| 2026-04-26 23:04 | 48.40278 | -65.09449 | 36250 ft | 472 kts | 239° |
| 2026-04-26 23:05 | 48.36617 | -65.17630 | 36239 ft | 471 kts | 239° |
| 2026-04-26 23:05 | 48.32979 | -65.25742 | 36227 ft | 470 kts | 239° |
| 2026-04-26 23:06 | 48.29919 | -65.32569 | 36220 ft | 470 kts | 239° |
| 2026-04-26 23:06 | 48.25661 | -65.42004 | 36210 ft | 469 kts | 239° |
| 2026-04-26 23:07 | 48.21988 | -65.50089 | 36213 ft | 469 kts | 239° |
| 2026-04-26 23:07 | 48.18310 | -65.58165 | 36208 ft | 469 kts | 238° |
| 2026-04-26 23:08 | 48.14633 | -65.66232 | 36211 ft | 468 kts | 238° |
| 2026-04-26 23:08 | 48.10959 | -65.74276 | 36206 ft | 468 kts | 238° |
| 2026-04-26 23:09 | 48.07276 | -65.82305 | 36218 ft | 468 kts | 238° |
| 2026-04-26 23:09 | 48.03590 | -65.90314 | 36207 ft | 468 kts | 238° |
| 2026-04-26 23:10 | 47.99893 | -65.98303 | 36210 ft | 467 kts | 238° |
| 2026-04-26 23:10 | 47.96822 | -66.04936 | 36205 ft | 467 kts | 238° |
| 2026-04-26 23:11 | 47.93130 | -66.12893 | 36194 ft | 467 kts | 238° |
| 2026-04-26 23:11 | 47.89438 | -66.20849 | 36191 ft | 466 kts | 238° |
| 2026-04-26 23:12 | 47.85738 | -66.28777 | 36182 ft | 466 kts | 238° |
| 2026-04-26 23:12 | 47.82029 | -66.36687 | 36187 ft | 465 kts | 238° |
| 2026-04-26 23:13 | 47.78328 | -66.44576 | 36186 ft | 465 kts | 238° |
| 2026-04-26 23:13 | 47.74627 | -66.52456 | 36189 ft | 465 kts | 238° |
| 2026-04-26 23:14 | 47.70921 | -66.60314 | 36180 ft | 464 kts | 237° |
| 2026-04-26 23:14 | 47.67202 | -66.68158 | 36190 ft | 464 kts | 237° |
| 2026-04-26 23:15 | 47.63473 | -66.75962 | 36189 ft | 464 kts | 237° |
| 2026-04-26 23:15 | 47.59744 | -66.83759 | 36191 ft | 463 kts | 237° |
| 2026-04-26 23:16 | 47.56022 | -66.91546 | 36185 ft | 463 kts | 237° |
| 2026-04-26 23:16 | 47.52302 | -66.99332 | 36187 ft | 463 kts | 237° |
| 2026-04-26 23:17 | 47.48599 | -67.07057 | 36188 ft | 463 kts | 237° |
| 2026-04-26 23:17 | 47.44866 | -67.14809 | 36187 ft | 463 kts | 237° |
| 2026-04-26 23:18 | 47.41126 | -67.22537 | 36184 ft | 462 kts | 237° |
| 2026-04-26 23:18 | 47.36832 | -67.29615 | 36185 ft | 467 kts | 221° |
| 2026-04-26 23:19 | 47.31232 | -67.34518 | 36183 ft | 471 kts | 206° |
| 2026-04-26 23:19 | 47.25276 | -67.38524 | 36177 ft | 471 kts | 207° |
| 2026-04-26 23:20 | 47.19316 | -67.42545 | 36176 ft | 471 kts | 207° |
| 2026-04-26 23:20 | 47.13355 | -67.46553 | 36172 ft | 471 kts | 207° |
| 2026-04-26 23:21 | 47.07393 | -67.50544 | 36173 ft | 471 kts | 207° |
| 2026-04-26 23:21 | 47.01436 | -67.54521 | 36176 ft | 471 kts | 207° |
| 2026-04-26 23:22 | 46.95474 | -67.58497 | 36176 ft | 470 kts | 207° |
| 2026-04-26 23:22 | 46.89522 | -67.62452 | 36179 ft | 470 kts | 207° |
| 2026-04-26 23:23 | 46.83573 | -67.66402 | 36180 ft | 469 kts | 207° |
| 2026-04-26 23:23 | 46.77619 | -67.70343 | 36180 ft | 469 kts | 207° |
| 2026-04-26 23:24 | 46.71719 | -67.74231 | 36190 ft | 469 kts | 207° |
| 2026-04-26 23:24 | 46.65776 | -67.78141 | 36197 ft | 468 kts | 207° |
| 2026-04-26 23:25 | 46.59842 | -67.82042 | 36194 ft | 468 kts | 207° |
| 2026-04-26 23:25 | 46.53913 | -67.85938 | 36198 ft | 467 kts | 207° |
| 2026-04-26 23:26 | 46.47990 | -67.89819 | 36200 ft | 467 kts | 207° |
| 2026-04-26 23:26 | 46.42067 | -67.93682 | 36203 ft | 467 kts | 207° |
| 2026-04-26 23:27 | 46.36147 | -67.97530 | 36194 ft | 466 kts | 207° |
| 2026-04-26 23:27 | 46.30224 | -68.01377 | 36195 ft | 466 kts | 207° |
| 2026-04-26 23:28 | 46.24310 | -68.05204 | 36195 ft | 466 kts | 207° |
| 2026-04-26 23:28 | 46.18431 | -68.09000 | 36184 ft | 466 kts | 207° |
| 2026-04-26 23:29 | 46.12521 | -68.12816 | 36187 ft | 465 kts | 207° |
| 2026-04-26 23:29 | 46.06607 | -68.16619 | 36184 ft | 465 kts | 207° |
| 2026-04-26 23:30 | 46.00691 | -68.20406 | 36181 ft | 465 kts | 207° |
| 2026-04-26 23:30 | 45.94783 | -68.24194 | 36188 ft | 465 kts | 207° |
| 2026-04-26 23:31 | 45.88874 | -68.27972 | 36185 ft | 465 kts | 207° |
| 2026-04-26 23:31 | 45.82962 | -68.31740 | 36180 ft | 465 kts | 207° |
| 2026-04-26 23:32 | 45.77053 | -68.35497 | 36179 ft | 465 kts | 207° |
| 2026-04-26 23:32 | 45.71136 | -68.39239 | 36176 ft | 465 kts | 207° |
| 2026-04-26 23:33 | 45.65220 | -68.42972 | 36174 ft | 465 kts | 207° |
| 2026-04-26 23:33 | 45.59350 | -68.46686 | 36173 ft | 465 kts | 208° |
| 2026-04-26 23:34 | 45.53429 | -68.50424 | 36175 ft | 465 kts | 207° |
| 2026-04-26 23:34 | 45.47506 | -68.54140 | 36175 ft | 465 kts | 207° |
| 2026-04-26 23:35 | 45.41582 | -68.57849 | 36180 ft | 465 kts | 207° |
| 2026-04-26 23:35 | 45.35649 | -68.61565 | 36175 ft | 465 kts | 207° |
| 2026-04-26 23:36 | 45.29730 | -68.65267 | 36180 ft | 465 kts | 207° |
| 2026-04-26 23:36 | 45.23805 | -68.68948 | 36177 ft | 465 kts | 207° |
| 2026-04-26 23:37 | 45.17915 | -68.72598 | 36181 ft | 465 kts | 207° |
| 2026-04-26 23:37 | 45.11991 | -68.76266 | 36172 ft | 465 kts | 207° |
| 2026-04-26 23:38 | 45.06071 | -68.79931 | 36184 ft | 464 kts | 207° |
| 2026-04-26 23:38 | 45.00148 | -68.83589 | 36181 ft | 464 kts | 207° |
| 2026-04-26 23:39 | 44.94236 | -68.87228 | 36169 ft | 463 kts | 204° |
| 2026-04-26 23:39 | 44.88333 | -68.90850 | 36192 ft | 462 kts | 204° |
| 2026-04-26 23:40 | 44.82448 | -68.94454 | 36195 ft | 461 kts | 204° |
| 2026-04-26 23:40 | 44.76565 | -68.98055 | 36192 ft | 461 kts | 204° |
| 2026-04-26 23:41 | 44.70674 | -69.01650 | 36190 ft | 461 kts | 204° |
| 2026-04-26 23:41 | 44.64783 | -69.05236 | 36187 ft | 461 kts | 204° |
| 2026-04-26 23:42 | 44.58899 | -69.08808 | 36187 ft | 461 kts | 204° |
| 2026-04-26 23:42 | 44.50055 | -69.14161 | 36191 ft | 462 kts | 204° |
| 2026-04-26 23:43 | 44.44156 | -69.17733 | 36191 ft | 462 kts | 204° |
| 2026-04-26 23:43 | 44.38609 | -69.21080 | 36199 ft | 462 kts | 204° |
| 2026-04-26 23:44 | 44.32700 | -69.24627 | 36206 ft | 462 kts | 204° |
| 2026-04-26 23:44 | 44.27010 | -69.28057 | 36211 ft | 462 kts | 204° |
| 2026-04-26 23:45 | 44.21627 | -69.31305 | 36214 ft | 462 kts | 204° |
| 2026-04-26 23:45 | 44.15709 | -69.34853 | 36219 ft | 463 kts | 204° |
| 2026-04-26 23:46 | 44.09794 | -69.38370 | 36223 ft | 463 kts | 203° |
| 2026-04-26 23:46 | 44.03874 | -69.41886 | 36223 ft | 462 kts | 204° |
| 2026-04-26 23:47 | 43.97995 | -69.45378 | 36233 ft | 462 kts | 204° |
| 2026-04-26 23:47 | 43.92086 | -69.48886 | 36238 ft | 462 kts | 204° |
| 2026-04-26 23:48 | 43.86169 | -69.52375 | 36240 ft | 462 kts | 204° |
| 2026-04-26 23:48 | 43.80265 | -69.55866 | 36241 ft | 461 kts | 204° |
| 2026-04-26 23:49 | 43.74361 | -69.59345 | 36241 ft | 461 kts | 203° |
| 2026-04-26 23:49 | 43.68374 | -69.62522 | 36242 ft | 461 kts | 199° |
| 2026-04-26 23:50 | 43.62254 | -69.65187 | 36243 ft | 461 kts | 197° |
| 2026-04-26 23:50 | 43.56124 | -69.67783 | 36242 ft | 461 kts | 198° |
| 2026-04-26 23:51 | 43.50021 | -69.70498 | 36239 ft | 461 kts | 199° |
| 2026-04-26 23:51 | 43.43938 | -69.73260 | 36245 ft | 460 kts | 199° |
| 2026-04-26 23:52 | 43.37851 | -69.76008 | 36245 ft | 460 kts | 199° |
| 2026-04-26 23:52 | 43.34806 | -69.77376 | 35648 ft | 462 kts | 199° |
| 2026-04-26 23:52 | 43.31734 | -69.78752 | 34766 ft | 466 kts | 198° |
| 2026-04-26 23:53 | 43.28643 | -69.80128 | 33913 ft | 469 kts | 198° |
| 2026-04-26 23:53 | 43.25533 | -69.81508 | 32975 ft | 470 kts | 198° |
| 2026-04-26 23:53 | 43.22417 | -69.82889 | 32036 ft | 471 kts | 198° |
| 2026-04-26 23:53 | 43.19298 | -69.84277 | 31079 ft | 472 kts | 198° |
| 2026-04-26 23:54 | 43.16171 | -69.85672 | 30062 ft | 474 kts | 198° |
| 2026-04-26 23:54 | 43.13033 | -69.87069 | 28856 ft | 475 kts | 198° |
| 2026-04-26 23:54 | 43.09882 | -69.88474 | 27598 ft | 477 kts | 198° |
| 2026-04-26 23:54 | 43.06715 | -69.89882 | 26305 ft | 480 kts | 198° |
| 2026-04-26 23:55 | 43.03568 | -69.91271 | 25006 ft | 482 kts | 198° |
| 2026-04-26 23:55 | 43.00374 | -69.92677 | 23818 ft | 484 kts | 197° |
| 2026-04-26 23:55 | 42.97199 | -69.94078 | 22874 ft | 475 kts | 198° |
| 2026-04-26 23:55 | 42.94073 | -69.95463 | 21916 ft | 468 kts | 198° |
| 2026-04-26 23:56 | 42.90998 | -69.96825 | 20990 ft | 462 kts | 198° |
| 2026-04-26 23:56 | 42.87960 | -69.98169 | 20094 ft | 457 kts | 198° |
| 2026-04-26 23:56 | 42.84953 | -69.99502 | 19248 ft | 451 kts | 198° |
| 2026-04-26 23:56 | 42.81984 | -70.00813 | 18431 ft | 446 kts | 198° |
| 2026-04-26 23:57 | 42.79044 | -70.02101 | 17533 ft | 441 kts | 197° |
| 2026-04-26 23:57 | 42.76138 | -70.03371 | 16761 ft | 436 kts | 197° |
| 2026-04-26 23:57 | 42.73322 | -70.04653 | 16574 ft | 417 kts | 198° |
| 2026-04-26 23:57 | 42.70640 | -70.05956 | 16439 ft | 402 kts | 199° |
| 2026-04-26 23:58 | 42.68117 | -70.07420 | 16311 ft | 388 kts | 208° |
| 2026-04-26 23:58 | 42.65968 | -70.09511 | 16178 ft | 375 kts | 221° |
| 2026-04-26 23:58 | 42.64239 | -70.12077 | 16047 ft | 362 kts | 233° |
| 2026-04-26 23:58 | 42.62977 | -70.14966 | 15920 ft | 351 kts | 244° |
| 2026-04-26 23:59 | 42.61966 | -70.17928 | 15791 ft | 340 kts | 244° |
| 2026-04-26 23:59 | 42.60976 | -70.20794 | 15614 ft | 332 kts | 244° |
| 2026-04-26 23:59 | 42.60037 | -70.23632 | 15296 ft | 329 kts | 250° |
| 2026-04-26 23:59 | 42.59297 | -70.26566 | 14947 ft | 328 kts | 251° |
| 2026-04-27 00:00 | 42.58559 | -70.29490 | 14592 ft | 327 kts | 250° |
| 2026-04-27 00:00 | 42.57820 | -70.32406 | 14245 ft | 326 kts | 250° |
| 2026-04-27 00:00 | 42.57085 | -70.35314 | 13888 ft | 326 kts | 250° |
| 2026-04-27 00:00 | 42.56350 | -70.38211 | 13521 ft | 324 kts | 250° |
| 2026-04-27 00:01 | 42.55617 | -70.41091 | 13168 ft | 322 kts | 251° |
| 2026-04-27 00:01 | 42.54889 | -70.43949 | 12810 ft | 320 kts | 251° |
| 2026-04-27 00:01 | 42.54166 | -70.46792 | 12461 ft | 318 kts | 251° |
| 2026-04-27 00:01 | 42.53447 | -70.49618 | 12119 ft | 315 kts | 251° |
| 2026-04-27 00:02 | 42.52974 | -70.51469 | 11913 ft | 313 kts | 251° |
| 2026-04-27 00:02 | 42.52291 | -70.54247 | 11665 ft | 309 kts | 253° |
| 2026-04-27 00:02 | 42.51640 | -70.57054 | 11450 ft | 307 kts | 253° |
| 2026-04-27 00:02 | 42.51014 | -70.59818 | 11249 ft | 306 kts | 254° |
| 2026-04-27 00:03 | 42.50393 | -70.62578 | 11054 ft | 306 kts | 254° |
| 2026-04-27 00:03 | 42.49770 | -70.65325 | 10855 ft | 305 kts | 254° |
| 2026-04-27 00:03 | 42.49143 | -70.68069 | 10656 ft | 304 kts | 254° |
| 2026-04-27 00:03 | 42.48524 | -70.70761 | 10454 ft | 304 kts | 254° |
| 2026-04-27 00:04 | 42.47892 | -70.73493 | 10252 ft | 303 kts | 253° |
| 2026-04-27 00:04 | 42.47259 | -70.76219 | 10048 ft | 303 kts | 253° |
| 2026-04-27 00:04 | 42.46629 | -70.78933 | 9856 ft | 302 kts | 253° |
| 2026-04-27 00:04 | 42.45890 | -70.81591 | 9665 ft | 302 kts | 243° |
| 2026-04-27 00:05 | 42.44726 | -70.83949 | 9437 ft | 301 kts | 229° |
| 2026-04-27 00:05 | 42.43258 | -70.85962 | 9147 ft | 300 kts | 224° |
| 2026-04-27 00:05 | 42.41725 | -70.87862 | 8750 ft | 298 kts | 216° |
| 2026-04-27 00:05 | 42.39945 | -70.89276 | 8368 ft | 296 kts | 202° |
| 2026-04-27 00:06 | 42.38022 | -70.90238 | 7985 ft | 294 kts | 198° |
| 2026-04-27 00:06 | 42.36098 | -70.91163 | 7604 ft | 293 kts | 198° |
| 2026-04-27 00:06 | 42.34179 | -70.92086 | 7231 ft | 291 kts | 199° |
| 2026-04-27 00:06 | 42.32276 | -70.93000 | 6861 ft | 289 kts | 199° |
| 2026-04-27 00:07 | 42.30388 | -70.93896 | 6479 ft | 287 kts | 198° |
| 2026-04-27 00:07 | 42.28525 | -70.94723 | 6095 ft | 284 kts | 197° |
| 2026-04-27 00:07 | 42.26648 | -70.95523 | 5706 ft | 282 kts | 196° |
| 2026-04-27 00:07 | 42.24787 | -70.96306 | 5318 ft | 279 kts | 196° |
| 2026-04-27 00:08 | 42.22942 | -70.97087 | 4931 ft | 277 kts | 196° |
| 2026-04-27 00:08 | 42.21112 | -70.97862 | 4534 ft | 274 kts | 196° |
| 2026-04-27 00:08 | 42.19319 | -70.98625 | 4273 ft | 267 kts | 196° |
| 2026-04-27 00:08 | 42.17573 | -70.99375 | 4012 ft | 259 kts | 196° |
| 2026-04-27 00:09 | 42.15884 | -71.00118 | 3758 ft | 253 kts | 196° |
| 2026-04-27 00:09 | 42.14230 | -71.00846 | 3517 ft | 246 kts | 196° |
| 2026-04-27 00:09 | 42.12642 | -71.01555 | 3389 ft | 236 kts | 197° |
| 2026-04-27 00:09 | 42.11255 | -71.02661 | 3248 ft | 233 kts | 226° |
| 2026-04-27 00:10 | 42.10527 | -71.04564 | 3124 ft | 231 kts | 261° |
| 2026-04-27 00:10 | 42.10683 | -71.06640 | 3016 ft | 219 kts | 296° |
| 2026-04-27 00:10 | 42.11584 | -71.08163 | 3015 ft | 201 kts | 322° |
| 2026-04-27 00:10 | 42.12746 | -71.09096 | 3015 ft | 191 kts | 342° |
| 2026-04-27 00:11 | 42.13986 | -71.09684 | 3008 ft | 187 kts | 346° |
| 2026-04-27 00:11 | 42.15232 | -71.10188 | 2996 ft | 185 kts | 353° |
| 2026-04-27 00:11 | 42.16488 | -71.10133 | 3010 ft | 180 kts | 17° |
| 2026-04-27 00:11 | 42.17671 | -71.09584 | 3012 ft | 179 kts | 22° |
| 2026-04-27 00:12 | 42.18843 | -71.09020 | 3011 ft | 179 kts | 22° |
| 2026-04-27 00:12 | 42.20018 | -71.08455 | 3011 ft | 179 kts | 22° |
| 2026-04-27 00:12 | 42.21194 | -71.07889 | 2959 ft | 180 kts | 22° |
| 2026-04-27 00:12 | 42.22373 | -71.07322 | 2772 ft | 180 kts | 22° |
| 2026-04-27 00:13 | 42.23536 | -71.06762 | 2547 ft | 180 kts | 22° |
| 2026-04-27 00:13 | 42.24684 | -71.06210 | 2309 ft | 170 kts | 22° |
| 2026-04-27 00:13 | 42.25771 | -71.05687 | 2090 ft | 163 kts | 22° |
| 2026-04-27 00:13 | 42.26833 | -71.05174 | 1870 ft | 161 kts | 22° |
| 2026-04-27 00:14 | 42.27888 | -71.04665 | 1652 ft | 161 kts | 22° |
| 2026-04-27 00:14 | 42.28939 | -71.04158 | 1421 ft | 160 kts | 22° |
| 2026-04-27 00:14 | 42.29991 | -71.03651 | 1201 ft | 161 kts | 21° |
| 2026-04-27 00:14 | 42.31045 | -71.03142 | 986 ft | 160 kts | 21° |
| 2026-04-27 00:15 | 42.32060 | -71.02652 | 770 ft | 148 kts | 21° |
| 2026-04-27 00:15 | 42.32999 | -71.02197 | 578 ft | 140 kts | 21° |
| 2026-04-27 00:15 | 42.33900 | -71.01755 | 387 ft | 136 kts | 21° |
| 2026-04-27 00:15 | 42.34792 | -71.01336 | 218 ft | 135 kts | 20° |
| 2026-04-27 00:16 | 42.35673 | -71.00912 | 32 ft | 134 kts | 21° |
| 2026-04-27 00:16 | 42.36449 | -71.00529 | 27 ft | 98 kts | 19° |
| 2026-04-27 00:16 | 42.36928 | -71.00299 | 27 ft | 48 kts | 19° |
| 2026-04-27 00:16 | 42.37141 | -71.00203 | 27 ft | 27 kts | 15° |
| 2026-04-27 00:17 | 42.37318 | -71.00191 | 29 ft | 25 kts | 351° |
| 2026-04-27 00:17 | 42.37491 | -71.00239 | 27 ft | 26 kts | 348° |
| 2026-04-27 00:17 | 42.37668 | -71.00289 | 28 ft | 27 kts | 348° |
| 2026-04-27 00:17 | 42.37787 | -71.00385 | 28 ft | 17 kts | 291° |
| 2026-04-27 00:18 | 42.37824 | -71.00536 | 27 ft | 18 kts | 288° |
| 2026-04-27 00:18 | 42.37800 | -71.00669 | 28 ft | 17 kts | 202° |
| 2026-04-27 00:18 | 42.37683 | -71.00724 | 27 ft | 19 kts | 199° |
| 2026-04-27 00:18 | 42.37550 | -71.00788 | 26 ft | 21 kts | 200° |
| 2026-04-27 00:19 | 42.37410 | -71.00857 | 26 ft | 22 kts | 200° |
| 2026-04-27 00:19 | 42.37262 | -71.00931 | 26 ft | 23 kts | 203° |
| 2026-04-27 00:19 | 42.37111 | -71.01027 | 27 ft | 24 kts | 205° |
| 2026-04-27 00:19 | 42.36976 | -71.01119 | 26 ft | 18 kts | 209° |
| 2026-04-27 00:20 | 42.36887 | -71.01221 | 27 ft | 15 kts | 228° |
| 2026-04-27 00:20 | 42.36910 | -71.01308 | 26 ft | 11 kts | 315° |
| 2026-04-27 00:20 | 42.36972 | -71.01391 | 28 ft | 14 kts | 315° |
| 2026-04-27 00:20 | 42.37042 | -71.01490 | 29 ft | 14 kts | 297° |
| 2026-04-27 00:21 | 42.37002 | -71.01580 | 30 ft | 11 kts | 207° |
| 2026-04-27 00:21 | 42.36938 | -71.01628 | 27 ft | 10 kts | 212° |
| 2026-04-27 00:21 | 42.36888 | -71.01672 | 27 ft | 8 kts | 213° |
| 2026-04-27 00:21 | 42.36882 | -71.01722 | 26 ft | 6 kts | 302° |
| 2026-04-27 00:22 | 42.36898 | -71.01761 | 28 ft | 4 kts | 298° |
| 2026-04-27 00:22 | 42.36906 | -71.01780 | 28 ft | 0 kts | 299° |
| 2026-04-27 00:24 | 42.36906 | -71.01781 | 26 ft | 0 kts | 299° |